KAR3548 VVCR-UUEE
Flight info
| Callsign | KAR3548 |
|---|---|
| Flight time | N/A |
| Altitude | 30000 |
| Route | BANKE W15 LKH DCT MULAD/N0498F300 DCT UXARO DCT TUPGO M633 OLTUM DCT BETNO N895 PTN/N0504F320 P646 BBN R460 LKN M890 PUMOT/N0491F340 M890 SULOM A466 DI M881 LAJAK L509 TAPIS M875 AMDAR/K0902F340 M875 FAZUL/K0889F360 M875 MILSO M161 URL M166 ARISA L736 OLOPI |
| Aircraft | B772/H-SDE2E3FGHIJ5LORVWXY/LB1D1 |
Departure
| Time | 2026-04-25 05:54 |
|---|---|
| Airport | Cam Ranh International Airport / Cam Ranh Air Base (VVCR) |
Arrival
| Time | N/A |
|---|---|
| Airport | Sheremetyevo International Airport (UUEE) |
| Time | Latitude | Longitude | Altitude | Speed | Heading |
|---|---|---|---|---|---|
| 2026-04-25 05:11 | 12.01259 | 109.21870 | 66 ft | 0 kts | 289° |
| 2026-04-25 05:41 | 12.01255 | 109.21882 | 66 ft | 2 kts | 287° |
| 2026-04-25 05:41 | 12.01251 | 109.21896 | 66 ft | 2 kts | 287° |
| 2026-04-25 05:41 | 12.01246 | 109.21911 | 67 ft | 2 kts | 288° |
| 2026-04-25 05:42 | 12.01242 | 109.21925 | 67 ft | 2 kts | 288° |
| 2026-04-25 05:42 | 12.01235 | 109.21938 | 67 ft | 2 kts | 332° |
| 2026-04-25 05:42 | 12.01220 | 109.21941 | 68 ft | 2 kts | 21° |
| 2026-04-25 05:42 | 12.01207 | 109.21935 | 68 ft | 2 kts | 22° |
| 2026-04-25 05:43 | 12.01193 | 109.21929 | 68 ft | 2 kts | 17° |
| 2026-04-25 05:43 | 12.01178 | 109.21925 | 69 ft | 2 kts | 18° |
| 2026-04-25 05:43 | 12.01166 | 109.21921 | 69 ft | 0 kts | 18° |
| 2026-04-25 05:43 | 12.01166 | 109.21920 | 69 ft | 0 kts | 18° |
| 2026-04-25 05:44 | 12.01166 | 109.21921 | 69 ft | 0 kts | 18° |
| 2026-04-25 05:46 | 12.01167 | 109.21921 | 69 ft | 0 kts | 18° |
| 2026-04-25 05:46 | 12.01193 | 109.21929 | 68 ft | 6 kts | 18° |
| 2026-04-25 05:47 | 12.01235 | 109.21975 | 68 ft | 10 kts | 77° |
| 2026-04-25 05:47 | 12.01220 | 109.22054 | 68 ft | 13 kts | 109° |
| 2026-04-25 05:47 | 12.01173 | 109.22150 | 65 ft | 16 kts | 149° |
| 2026-04-25 05:47 | 12.01066 | 109.22134 | 66 ft | 15 kts | 198° |
| 2026-04-25 05:48 | 12.00966 | 109.22100 | 65 ft | 15 kts | 199° |
| 2026-04-25 05:48 | 12.00851 | 109.22060 | 64 ft | 18 kts | 198° |
| 2026-04-25 05:48 | 12.00721 | 109.22015 | 63 ft | 21 kts | 199° |
| 2026-04-25 05:48 | 12.00573 | 109.21963 | 62 ft | 23 kts | 199° |
| 2026-04-25 05:49 | 12.00417 | 109.21909 | 63 ft | 24 kts | 198° |
| 2026-04-25 05:49 | 12.00258 | 109.21855 | 64 ft | 23 kts | 199° |
| 2026-04-25 05:49 | 12.00111 | 109.21804 | 66 ft | 20 kts | 199° |
| 2026-04-25 05:49 | 11.99978 | 109.21758 | 64 ft | 20 kts | 199° |
| 2026-04-25 05:50 | 11.99829 | 109.21706 | 62 ft | 24 kts | 199° |
| 2026-04-25 05:50 | 11.99658 | 109.21647 | 60 ft | 27 kts | 199° |
| 2026-04-25 05:50 | 11.99478 | 109.21585 | 60 ft | 26 kts | 197° |
| 2026-04-25 05:50 | 11.99306 | 109.21525 | 60 ft | 25 kts | 199° |
| 2026-04-25 05:51 | 11.99140 | 109.21468 | 58 ft | 25 kts | 198° |
| 2026-04-25 05:51 | 11.98970 | 109.21407 | 52 ft | 26 kts | 199° |
| 2026-04-25 05:51 | 11.98789 | 109.21346 | 46 ft | 28 kts | 198° |
| 2026-04-25 05:51 | 11.98630 | 109.21292 | 43 ft | 17 kts | 198° |
| 2026-04-25 05:52 | 11.98562 | 109.21344 | 44 ft | 14 kts | 97° |
| 2026-04-25 05:52 | 11.98538 | 109.21439 | 45 ft | 12 kts | 102° |
| 2026-04-25 05:52 | 11.98579 | 109.21503 | 46 ft | 10 kts | 26° |
| 2026-04-25 05:52 | 11.98643 | 109.21526 | 46 ft | 9 kts | 20° |
| 2026-04-25 05:53 | 11.98808 | 109.21583 | 51 ft | 51 kts | 19° |
| 2026-04-25 05:53 | 11.99329 | 109.21768 | 61 ft | 107 kts | 19° |
| 2026-04-25 05:53 | 12.00229 | 109.22070 | 60 ft | 158 kts | 19° |
| 2026-04-25 05:53 | 12.01369 | 109.22473 | 301 ft | 176 kts | 19° |
| 2026-04-25 05:54 | 12.01541 | 109.22531 | 393 ft | 175 kts | 19° |
| 2026-04-25 05:54 | 12.01678 | 109.22576 | 474 ft | 172 kts | 18° |
| 2026-04-25 05:54 | 12.04138 | 109.23352 | 1279 ft | 194 kts | 24° |
| 2026-04-25 05:55 | 12.05437 | 109.23872 | 1515 ft | 209 kts | 22° |
| 2026-04-25 05:55 | 12.06870 | 109.24384 | 1721 ft | 225 kts | 21° |
| 2026-04-25 05:55 | 12.08445 | 109.24894 | 1953 ft | 242 kts | 12° |
| 2026-04-25 05:55 | 12.10190 | 109.24859 | 2198 ft | 259 kts | 351° |
| 2026-04-25 05:56 | 12.11972 | 109.24429 | 2740 ft | 261 kts | 348° |
| 2026-04-25 05:56 | 12.13738 | 109.23973 | 3321 ft | 261 kts | 348° |
| 2026-04-25 05:56 | 12.15524 | 109.23522 | 3856 ft | 263 kts | 348° |
| 2026-04-25 05:56 | 12.17326 | 109.23072 | 4414 ft | 265 kts | 348° |
| 2026-04-25 05:57 | 12.19115 | 109.22626 | 4955 ft | 266 kts | 347° |
| 2026-04-25 05:57 | 12.20833 | 109.21891 | 5450 ft | 271 kts | 324° |
| 2026-04-25 05:57 | 12.22111 | 109.20448 | 5955 ft | 275 kts | 303° |
| 2026-04-25 05:57 | 12.23054 | 109.18749 | 6498 ft | 277 kts | 300° |
| 2026-04-25 05:58 | 12.23954 | 109.16992 | 6911 ft | 282 kts | 299° |
| 2026-04-25 05:58 | 12.24873 | 109.15191 | 7407 ft | 284 kts | 300° |
| 2026-04-25 05:58 | 12.25802 | 109.13378 | 7882 ft | 287 kts | 300° |
| 2026-04-25 05:58 | 12.26724 | 109.11582 | 8340 ft | 289 kts | 300° |
| 2026-04-25 05:59 | 12.27642 | 109.09728 | 8788 ft | 293 kts | 292° |
| 2026-04-25 05:59 | 12.27975 | 109.07682 | 9164 ft | 300 kts | 266° |
| 2026-04-25 05:59 | 12.27404 | 109.05614 | 9583 ft | 304 kts | 241° |
| 2026-04-25 05:59 | 12.26226 | 109.03804 | 10101 ft | 306 kts | 234° |
| 2026-04-25 06:00 | 12.24906 | 109.02033 | 10257 ft | 320 kts | 233° |
| 2026-04-25 06:00 | 12.23492 | 109.00151 | 10401 ft | 336 kts | 233° |
| 2026-04-25 06:00 | 12.22041 | 108.98205 | 10557 ft | 351 kts | 233° |
| 2026-04-25 06:00 | 12.20526 | 108.96165 | 10737 ft | 366 kts | 233° |
| 2026-04-25 06:01 | 12.18974 | 108.94074 | 10918 ft | 379 kts | 233° |
| 2026-04-25 06:01 | 12.17342 | 108.91874 | 11174 ft | 389 kts | 233° |
| 2026-04-25 06:01 | 12.15690 | 108.89650 | 11620 ft | 393 kts | 233° |
| 2026-04-25 06:01 | 12.14022 | 108.87402 | 12136 ft | 394 kts | 233° |
| 2026-04-25 06:02 | 12.12353 | 108.85154 | 12612 ft | 396 kts | 233° |
| 2026-04-25 06:02 | 12.10675 | 108.82894 | 13054 ft | 399 kts | 233° |
| 2026-04-25 06:02 | 12.09008 | 108.80650 | 13509 ft | 401 kts | 233° |
| 2026-04-25 06:02 | 12.07319 | 108.78375 | 13988 ft | 401 kts | 233° |
| 2026-04-25 06:03 | 12.05615 | 108.76081 | 14452 ft | 403 kts | 233° |
| 2026-04-25 06:03 | 12.03931 | 108.73816 | 14899 ft | 404 kts | 233° |
| 2026-04-25 06:03 | 12.02215 | 108.71506 | 15354 ft | 405 kts | 233° |
| 2026-04-25 06:03 | 12.00521 | 108.69229 | 15795 ft | 406 kts | 233° |
| 2026-04-25 06:04 | 11.98786 | 108.66894 | 16205 ft | 408 kts | 233° |
| 2026-04-25 06:04 | 11.97072 | 108.64590 | 16605 ft | 410 kts | 233° |
| 2026-04-25 06:04 | 11.95331 | 108.62250 | 17040 ft | 410 kts | 233° |
| 2026-04-25 06:04 | 11.93611 | 108.59940 | 17433 ft | 412 kts | 233° |
| 2026-04-25 06:05 | 11.91852 | 108.57577 | 17762 ft | 415 kts | 233° |
| 2026-04-25 06:05 | 11.90095 | 108.55217 | 18100 ft | 419 kts | 233° |
| 2026-04-25 06:05 | 11.88337 | 108.52856 | 18460 ft | 421 kts | 233° |
| 2026-04-25 06:05 | 11.86561 | 108.50472 | 18805 ft | 423 kts | 233° |
| 2026-04-25 06:06 | 11.84767 | 108.48059 | 19110 ft | 426 kts | 234° |
| 2026-04-25 06:06 | 11.83192 | 108.45463 | 19404 ft | 429 kts | 244° |
| 2026-04-25 06:06 | 11.82080 | 108.42639 | 19723 ft | 430 kts | 254° |
| 2026-04-25 06:06 | 11.81450 | 108.39651 | 20019 ft | 432 kts | 264° |
| 2026-04-25 06:07 | 11.81329 | 108.36557 | 20292 ft | 435 kts | 274° |
| 2026-04-25 06:07 | 11.81741 | 108.33471 | 20597 ft | 436 kts | 284° |
| 2026-04-25 06:07 | 11.82682 | 108.30491 | 20924 ft | 437 kts | 294° |
| 2026-04-25 06:07 | 11.84093 | 108.27759 | 21222 ft | 438 kts | 304° |
| 2026-04-25 06:08 | 11.85974 | 108.25286 | 21540 ft | 439 kts | 314° |
| 2026-04-25 06:08 | 11.88146 | 108.23098 | 21844 ft | 440 kts | 317° |
| 2026-04-25 06:08 | 11.90381 | 108.20936 | 22141 ft | 442 kts | 317° |
| 2026-04-25 06:08 | 11.92623 | 108.18767 | 22473 ft | 444 kts | 317° |
| 2026-04-25 06:09 | 11.94881 | 108.16579 | 22787 ft | 445 kts | 317° |
| 2026-04-25 06:09 | 11.97156 | 108.14372 | 23052 ft | 448 kts | 317° |
| 2026-04-25 06:09 | 11.99424 | 108.12170 | 23334 ft | 450 kts | 317° |
| 2026-04-25 06:09 | 12.01702 | 108.09955 | 23638 ft | 452 kts | 317° |
| 2026-04-25 06:10 | 12.03961 | 108.07758 | 23922 ft | 453 kts | 317° |
| 2026-04-25 06:10 | 12.06258 | 108.05523 | 24205 ft | 455 kts | 317° |
| 2026-04-25 06:10 | 12.08562 | 108.03280 | 24472 ft | 457 kts | 317° |
| 2026-04-25 06:10 | 12.10909 | 108.00993 | 24729 ft | 459 kts | 317° |
| 2026-04-25 06:11 | 12.13235 | 107.98727 | 24989 ft | 461 kts | 317° |
| 2026-04-25 06:11 | 12.15541 | 107.96479 | 25273 ft | 463 kts | 317° |
| 2026-04-25 06:11 | 12.17889 | 107.94190 | 25581 ft | 463 kts | 317° |
| 2026-04-25 06:11 | 12.20243 | 107.91894 | 25869 ft | 465 kts | 317° |
| 2026-04-25 06:12 | 12.22580 | 107.89614 | 26117 ft | 466 kts | 317° |
| 2026-04-25 06:12 | 12.24956 | 107.87296 | 26334 ft | 469 kts | 317° |
| 2026-04-25 06:12 | 12.27317 | 107.84991 | 26568 ft | 471 kts | 317° |
| 2026-04-25 06:12 | 12.29682 | 107.82681 | 26816 ft | 473 kts | 317° |
| 2026-04-25 06:13 | 12.32072 | 107.80347 | 27057 ft | 474 kts | 317° |
| 2026-04-25 06:13 | 12.34468 | 107.78007 | 27305 ft | 476 kts | 317° |
| 2026-04-25 06:13 | 12.36871 | 107.75659 | 27537 ft | 477 kts | 317° |
| 2026-04-25 06:14 | 12.41695 | 107.70943 | 27963 ft | 481 kts | 317° |
| 2026-04-25 06:14 | 12.44121 | 107.68571 | 28186 ft | 483 kts | 317° |
| 2026-04-25 06:14 | 12.46562 | 107.66182 | 28397 ft | 484 kts | 317° |
| 2026-04-25 06:14 | 12.49012 | 107.63785 | 28589 ft | 486 kts | 318° |
| 2026-04-25 06:15 | 12.51465 | 107.61333 | 28802 ft | 489 kts | 314° |
| 2026-04-25 06:15 | 12.53574 | 107.58642 | 28971 ft | 493 kts | 305° |
| 2026-04-25 06:15 | 12.55293 | 107.55582 | 29157 ft | 496 kts | 296° |
| 2026-04-25 06:15 | 12.56556 | 107.52271 | 29375 ft | 499 kts | 290° |
| 2026-04-25 06:16 | 12.57629 | 107.48902 | 29600 ft | 500 kts | 289° |
| 2026-04-25 06:16 | 12.58695 | 107.45493 | 29810 ft | 501 kts | 289° |
| 2026-04-25 06:16 | 12.59754 | 107.42100 | 30004 ft | 503 kts | 289° |
| 2026-04-25 06:16 | 12.60828 | 107.38657 | 30200 ft | 504 kts | 289° |
| 2026-04-25 06:17 | 12.61892 | 107.35244 | 30469 ft | 503 kts | 289° |
| 2026-04-25 06:17 | 12.62978 | 107.31762 | 30828 ft | 501 kts | 289° |
| 2026-04-25 06:17 | 12.64021 | 107.28413 | 31182 ft | 498 kts | 289° |
| 2026-04-25 06:17 | 12.65075 | 107.25029 | 31495 ft | 496 kts | 289° |
| 2026-04-25 06:18 | 12.66116 | 107.21684 | 31756 ft | 495 kts | 289° |
| 2026-04-25 06:18 | 12.67173 | 107.18288 | 31910 ft | 496 kts | 288° |
| 2026-04-25 06:18 | 12.68220 | 107.14921 | 31913 ft | 497 kts | 288° |
| 2026-04-25 06:19 | 12.70311 | 107.08193 | 31897 ft | 496 kts | 288° |
| 2026-04-25 06:19 | 12.72410 | 107.01432 | 31885 ft | 497 kts | 288° |
| 2026-04-25 06:20 | 12.74503 | 106.94688 | 31879 ft | 496 kts | 289° |
| 2026-04-25 06:20 | 12.76591 | 106.87949 | 31865 ft | 495 kts | 288° |
| 2026-04-25 06:21 | 12.78660 | 106.81265 | 31857 ft | 494 kts | 288° |
| 2026-04-25 06:21 | 12.80744 | 106.74528 | 31851 ft | 495 kts | 288° |
| 2026-04-25 06:22 | 12.82820 | 106.67808 | 31846 ft | 494 kts | 288° |
| 2026-04-25 06:22 | 12.84886 | 106.61115 | 31841 ft | 494 kts | 288° |
| 2026-04-25 06:23 | 12.86966 | 106.54372 | 31841 ft | 495 kts | 288° |
| 2026-04-25 06:23 | 12.89037 | 106.47648 | 31840 ft | 496 kts | 288° |
| 2026-04-25 06:24 | 12.91109 | 106.40916 | 31837 ft | 495 kts | 288° |
| 2026-04-25 06:24 | 12.93181 | 106.34175 | 31837 ft | 494 kts | 288° |
| 2026-04-25 06:25 | 12.95253 | 106.27428 | 31843 ft | 495 kts | 288° |
| 2026-04-25 06:25 | 12.97310 | 106.20727 | 31841 ft | 494 kts | 288° |
| 2026-04-25 06:26 | 12.99387 | 106.13950 | 31829 ft | 495 kts | 288° |
| 2026-04-25 06:26 | 13.01449 | 106.07215 | 31827 ft | 495 kts | 288° |
| 2026-04-25 06:27 | 13.03515 | 106.00462 | 31821 ft | 494 kts | 288° |
| 2026-04-25 06:27 | 13.05572 | 105.93729 | 31828 ft | 494 kts | 288° |
| 2026-04-25 06:28 | 13.07618 | 105.87027 | 31833 ft | 494 kts | 288° |
| 2026-04-25 06:28 | 13.09678 | 105.80274 | 31838 ft | 495 kts | 288° |
| 2026-04-25 06:29 | 13.11744 | 105.73493 | 31843 ft | 494 kts | 288° |
| 2026-04-25 06:29 | 13.13804 | 105.66724 | 31845 ft | 494 kts | 288° |
| 2026-04-25 06:30 | 13.15860 | 105.59963 | 31843 ft | 495 kts | 288° |
| 2026-04-25 06:30 | 13.17907 | 105.53223 | 31844 ft | 495 kts | 288° |
| 2026-04-25 06:31 | 13.19961 | 105.46452 | 31843 ft | 495 kts | 288° |
| 2026-04-25 06:31 | 13.21998 | 105.39733 | 31838 ft | 494 kts | 288° |
| 2026-04-25 06:32 | 13.24046 | 105.32967 | 31832 ft | 494 kts | 288° |
| 2026-04-25 06:32 | 13.26100 | 105.26180 | 31829 ft | 493 kts | 288° |
| 2026-04-25 06:33 | 13.28123 | 105.19482 | 31829 ft | 494 kts | 288° |
| 2026-04-25 06:33 | 13.30159 | 105.12737 | 31833 ft | 493 kts | 288° |
| 2026-04-25 06:34 | 13.32197 | 105.05980 | 31837 ft | 494 kts | 288° |
| 2026-04-25 06:34 | 13.34222 | 104.99255 | 31841 ft | 494 kts | 288° |
| 2026-04-25 06:35 | 13.36258 | 104.92490 | 31838 ft | 493 kts | 288° |
| 2026-04-25 06:35 | 13.38272 | 104.85790 | 31835 ft | 493 kts | 288° |
| 2026-04-25 06:36 | 13.40294 | 104.79057 | 31829 ft | 493 kts | 288° |
| 2026-04-25 06:36 | 13.42321 | 104.72300 | 31829 ft | 492 kts | 288° |
| 2026-04-25 06:37 | 13.44325 | 104.65612 | 31829 ft | 493 kts | 288° |
| 2026-04-25 06:37 | 13.46352 | 104.58840 | 31836 ft | 492 kts | 288° |
| 2026-04-25 06:38 | 13.48354 | 104.52144 | 31840 ft | 491 kts | 288° |
| 2026-04-25 06:38 | 13.50361 | 104.45425 | 31842 ft | 493 kts | 288° |
| 2026-04-25 06:39 | 13.52360 | 104.38724 | 31850 ft | 491 kts | 288° |
| 2026-04-25 06:39 | 13.54366 | 104.31995 | 31851 ft | 491 kts | 288° |
| 2026-04-25 06:40 | 13.56368 | 104.25273 | 31844 ft | 491 kts | 287° |
| 2026-04-25 06:40 | 13.58376 | 104.18521 | 31849 ft | 492 kts | 288° |
| 2026-04-25 06:41 | 13.60373 | 104.11798 | 31842 ft | 491 kts | 287° |
| 2026-04-25 06:41 | 13.62374 | 104.05057 | 31832 ft | 491 kts | 287° |
| 2026-04-25 06:42 | 13.64359 | 103.98363 | 31824 ft | 491 kts | 287° |
| 2026-04-25 06:42 | 13.66355 | 103.91622 | 31821 ft | 489 kts | 287° |
| 2026-04-25 06:43 | 13.68334 | 103.84932 | 31820 ft | 491 kts | 287° |
| 2026-04-25 06:43 | 13.70224 | 103.78159 | 31818 ft | 490 kts | 282° |
| 2026-04-25 06:44 | 13.70789 | 103.71154 | 31820 ft | 494 kts | 272° |
| 2026-04-25 06:44 | 13.70967 | 103.64064 | 31822 ft | 493 kts | 272° |
| 2026-04-25 06:45 | 13.71133 | 103.57043 | 31819 ft | 493 kts | 272° |
| 2026-04-25 06:45 | 13.71293 | 103.49998 | 31816 ft | 492 kts | 272° |
| 2026-04-25 06:46 | 13.71450 | 103.42966 | 31822 ft | 491 kts | 272° |
| 2026-04-25 06:46 | 13.71603 | 103.35961 | 31820 ft | 492 kts | 272° |
| 2026-04-25 06:47 | 13.71756 | 103.28877 | 31818 ft | 491 kts | 272° |
| 2026-04-25 06:47 | 13.71905 | 103.21844 | 31821 ft | 492 kts | 272° |
| 2026-04-25 06:48 | 13.72051 | 103.14848 | 31819 ft | 492 kts | 272° |
| 2026-04-25 06:48 | 13.72196 | 103.07805 | 31821 ft | 493 kts | 272° |
| 2026-04-25 06:49 | 13.72339 | 103.00748 | 31814 ft | 492 kts | 272° |
| 2026-04-25 06:49 | 13.72479 | 102.93733 | 31815 ft | 491 kts | 272° |
| 2026-04-25 06:50 | 13.72618 | 102.86702 | 31814 ft | 491 kts | 272° |
| 2026-04-25 06:50 | 13.72754 | 102.79698 | 31822 ft | 491 kts | 272° |
| 2026-04-25 06:51 | 13.72889 | 102.72652 | 31825 ft | 491 kts | 272° |
| 2026-04-25 06:51 | 13.73022 | 102.65629 | 31839 ft | 492 kts | 272° |
| 2026-04-25 06:52 | 13.73151 | 102.58601 | 31836 ft | 491 kts | 272° |
| 2026-04-25 06:52 | 13.73277 | 102.51573 | 31843 ft | 492 kts | 272° |
| 2026-04-25 06:53 | 13.73402 | 102.44527 | 31849 ft | 491 kts | 272° |
| 2026-04-25 06:53 | 13.73525 | 102.37498 | 31853 ft | 492 kts | 272° |
| 2026-04-25 06:54 | 13.73645 | 102.30492 | 31863 ft | 491 kts | 272° |
| 2026-04-25 06:54 | 13.73764 | 102.23431 | 31868 ft | 491 kts | 272° |
| 2026-04-25 06:55 | 13.73881 | 102.16395 | 31873 ft | 491 kts | 272° |
| 2026-04-25 06:55 | 13.73995 | 102.09379 | 31874 ft | 491 kts | 272° |
| 2026-04-25 06:56 | 13.74108 | 102.02367 | 31874 ft | 490 kts | 272° |
| 2026-04-25 06:56 | 13.74218 | 101.95360 | 31867 ft | 491 kts | 272° |
| 2026-04-25 06:57 | 13.74327 | 101.88340 | 31859 ft | 491 kts | 272° |
| 2026-04-25 06:57 | 13.75246 | 101.81393 | 31854 ft | 489 kts | 287° |
| 2026-04-25 06:58 | 13.77622 | 101.74813 | 31854 ft | 490 kts | 292° |
| 2026-04-25 06:58 | 13.80109 | 101.68326 | 31851 ft | 487 kts | 292° |
| 2026-04-25 06:59 | 13.82606 | 101.61803 | 31851 ft | 488 kts | 292° |
| 2026-04-25 06:59 | 13.85085 | 101.55318 | 31843 ft | 488 kts | 292° |
| 2026-04-25 07:00 | 13.87571 | 101.48810 | 31843 ft | 489 kts | 292° |
| 2026-04-25 07:00 | 13.90061 | 101.42285 | 31840 ft | 488 kts | 292° |
| 2026-04-25 07:01 | 13.92555 | 101.35741 | 31838 ft | 490 kts | 292° |
| 2026-04-25 07:01 | 13.95056 | 101.29174 | 31836 ft | 489 kts | 291° |
| 2026-04-25 07:02 | 13.97524 | 101.22688 | 31838 ft | 489 kts | 291° |
| 2026-04-25 07:02 | 14.00011 | 101.16143 | 31826 ft | 490 kts | 291° |
| 2026-04-25 07:03 | 14.02501 | 101.09587 | 31827 ft | 489 kts | 291° |
| 2026-04-25 07:03 | 14.04969 | 101.03082 | 31817 ft | 490 kts | 291° |
| 2026-04-25 07:04 | 14.07446 | 100.96547 | 31827 ft | 487 kts | 291° |
| 2026-04-25 07:04 | 14.09904 | 100.90057 | 31834 ft | 489 kts | 291° |
| 2026-04-25 07:05 | 14.12395 | 100.83473 | 31833 ft | 489 kts | 291° |
| 2026-04-25 07:05 | 14.14876 | 100.76909 | 31832 ft | 488 kts | 291° |
| 2026-04-25 07:06 | 14.17338 | 100.70391 | 31831 ft | 489 kts | 291° |
| 2026-04-25 07:06 | 14.19796 | 100.63876 | 31830 ft | 487 kts | 291° |
| 2026-04-25 07:07 | 14.22256 | 100.57350 | 31825 ft | 488 kts | 291° |
| 2026-04-25 07:07 | 14.24715 | 100.50818 | 31826 ft | 487 kts | 291° |
| 2026-04-25 07:08 | 14.27169 | 100.44295 | 31818 ft | 488 kts | 291° |
| 2026-04-25 07:08 | 14.29627 | 100.37757 | 31819 ft | 488 kts | 291° |
| 2026-04-25 07:09 | 14.32078 | 100.31232 | 31824 ft | 487 kts | 291° |
| 2026-04-25 07:09 | 14.34516 | 100.24733 | 31828 ft | 487 kts | 291° |
| 2026-04-25 07:10 | 14.36974 | 100.18175 | 31831 ft | 487 kts | 291° |
| 2026-04-25 07:10 | 14.39421 | 100.11640 | 31831 ft | 486 kts | 291° |
| 2026-04-25 07:11 | 14.41856 | 100.05132 | 31830 ft | 486 kts | 291° |
| 2026-04-25 07:11 | 14.44285 | 99.98631 | 31827 ft | 486 kts | 291° |
| 2026-04-25 07:12 | 14.46709 | 99.92139 | 31827 ft | 485 kts | 291° |
| 2026-04-25 07:12 | 14.50368 | 99.82328 | 31824 ft | 485 kts | 291° |
| 2026-04-25 07:13 | 14.52796 | 99.75809 | 31827 ft | 485 kts | 291° |
| 2026-04-25 07:13 | 14.55205 | 99.69337 | 31831 ft | 485 kts | 291° |
| 2026-04-25 07:14 | 14.57637 | 99.62794 | 31841 ft | 485 kts | 291° |
| 2026-04-25 07:14 | 14.60055 | 99.56286 | 31850 ft | 483 kts | 291° |
| 2026-04-25 07:15 | 14.62457 | 99.49812 | 31862 ft | 484 kts | 291° |
| 2026-04-25 07:15 | 14.64866 | 99.43313 | 31890 ft | 483 kts | 291° |
| 2026-04-25 07:16 | 14.67268 | 99.36829 | 31927 ft | 483 kts | 291° |
| 2026-04-25 07:16 | 14.69688 | 99.30287 | 31961 ft | 483 kts | 291° |
| 2026-04-25 07:17 | 14.72096 | 99.23774 | 31986 ft | 484 kts | 291° |
| 2026-04-25 07:17 | 14.74492 | 99.17285 | 31980 ft | 483 kts | 291° |
| 2026-04-25 07:18 | 14.76882 | 99.10805 | 31964 ft | 482 kts | 291° |
| 2026-04-25 07:18 | 14.79277 | 99.04308 | 31954 ft | 481 kts | 291° |
| 2026-04-25 07:19 | 14.81645 | 98.97875 | 31944 ft | 481 kts | 291° |
| 2026-04-25 07:19 | 14.84037 | 98.91373 | 31968 ft | 482 kts | 291° |
| 2026-04-25 07:20 | 14.86426 | 98.84872 | 31982 ft | 481 kts | 291° |
| 2026-04-25 07:20 | 14.88800 | 98.78405 | 31990 ft | 481 kts | 291° |
| 2026-04-25 07:21 | 14.91182 | 98.71909 | 32000 ft | 482 kts | 291° |
| 2026-04-25 07:21 | 14.93560 | 98.65420 | 31973 ft | 480 kts | 291° |
| 2026-04-25 07:22 | 14.95924 | 98.58961 | 31937 ft | 480 kts | 291° |
| 2026-04-25 07:22 | 14.98298 | 98.52468 | 31902 ft | 480 kts | 291° |
| 2026-04-25 07:23 | 15.00644 | 98.46045 | 31876 ft | 479 kts | 291° |
| 2026-04-25 07:23 | 15.03002 | 98.39584 | 31891 ft | 480 kts | 291° |
| 2026-04-25 07:24 | 15.05368 | 98.33096 | 31914 ft | 478 kts | 291° |
| 2026-04-25 07:24 | 15.07722 | 98.26630 | 31929 ft | 479 kts | 291° |
| 2026-04-25 07:25 | 15.10165 | 98.20191 | 31925 ft | 478 kts | 296° |
| 2026-04-25 07:25 | 15.13259 | 98.14056 | 31908 ft | 477 kts | 298° |
| 2026-04-25 07:26 | 15.16364 | 98.07977 | 31897 ft | 477 kts | 298° |
| 2026-04-25 07:26 | 15.19461 | 98.01899 | 31878 ft | 475 kts | 298° |
| 2026-04-25 07:27 | 15.22543 | 97.95839 | 31869 ft | 478 kts | 298° |
| 2026-04-25 07:27 | 15.25643 | 97.89734 | 31871 ft | 474 kts | 298° |
| 2026-04-25 07:28 | 15.28715 | 97.83678 | 31848 ft | 476 kts | 298° |
| 2026-04-25 07:28 | 15.31802 | 97.77586 | 31839 ft | 476 kts | 298° |
| 2026-04-25 07:29 | 15.34881 | 97.71504 | 31827 ft | 476 kts | 298° |
| 2026-04-25 07:29 | 15.37942 | 97.65453 | 31829 ft | 475 kts | 298° |
| 2026-04-25 07:30 | 15.41011 | 97.59380 | 31825 ft | 474 kts | 298° |
| 2026-04-25 07:30 | 15.44062 | 97.53338 | 31826 ft | 475 kts | 298° |
| 2026-04-25 07:31 | 15.47138 | 97.47242 | 31825 ft | 474 kts | 298° |
| 2026-04-25 07:31 | 15.50193 | 97.41181 | 31829 ft | 475 kts | 298° |
| 2026-04-25 07:32 | 15.53249 | 97.35114 | 31831 ft | 474 kts | 298° |
| 2026-04-25 07:32 | 15.56294 | 97.29063 | 31835 ft | 474 kts | 298° |
| 2026-04-25 07:33 | 15.59341 | 97.23006 | 31840 ft | 473 kts | 298° |
| 2026-04-25 07:33 | 15.62394 | 97.16927 | 31844 ft | 473 kts | 298° |
| 2026-04-25 07:34 | 15.65418 | 97.10905 | 31855 ft | 472 kts | 298° |
| 2026-04-25 07:34 | 15.68447 | 97.04867 | 31853 ft | 472 kts | 298° |
| 2026-04-25 07:35 | 15.71483 | 96.98809 | 31848 ft | 471 kts | 298° |
| 2026-04-25 07:35 | 15.74501 | 96.92781 | 31850 ft | 472 kts | 298° |
| 2026-04-25 07:36 | 15.77523 | 96.86740 | 31851 ft | 471 kts | 298° |
| 2026-04-25 07:36 | 15.80541 | 96.80704 | 31850 ft | 473 kts | 298° |
| 2026-04-25 07:37 | 15.83554 | 96.74671 | 31846 ft | 470 kts | 298° |
| 2026-04-25 07:37 | 15.86568 | 96.68632 | 31846 ft | 470 kts | 298° |
| 2026-04-25 07:38 | 15.89585 | 96.62580 | 31847 ft | 471 kts | 298° |
| 2026-04-25 07:38 | 15.92589 | 96.56550 | 31845 ft | 468 kts | 298° |
| 2026-04-25 07:39 | 15.95584 | 96.50534 | 31843 ft | 469 kts | 298° |
| 2026-04-25 07:39 | 15.98570 | 96.44531 | 31844 ft | 470 kts | 298° |
| 2026-04-25 07:40 | 16.01567 | 96.38499 | 31843 ft | 466 kts | 298° |
| 2026-04-25 07:40 | 16.04557 | 96.32477 | 31848 ft | 468 kts | 298° |
| 2026-04-25 07:41 | 16.07545 | 96.26452 | 31848 ft | 468 kts | 298° |
| 2026-04-25 07:41 | 16.10523 | 96.20443 | 31847 ft | 466 kts | 297° |
| 2026-04-25 07:42 | 16.13507 | 96.14418 | 31843 ft | 467 kts | 297° |
| 2026-04-25 07:42 | 16.16497 | 96.08374 | 31846 ft | 467 kts | 297° |
| 2026-04-25 07:43 | 16.19468 | 96.02364 | 31839 ft | 466 kts | 298° |
| 2026-04-25 07:43 | 16.22427 | 95.96374 | 31842 ft | 468 kts | 297° |
| 2026-04-25 07:44 | 16.25400 | 95.90347 | 31840 ft | 466 kts | 297° |
| 2026-04-25 07:44 | 16.28356 | 95.84354 | 31830 ft | 468 kts | 297° |
| 2026-04-25 07:45 | 16.31333 | 95.78309 | 31829 ft | 466 kts | 297° |
| 2026-04-25 07:45 | 16.34305 | 95.72272 | 31819 ft | 467 kts | 297° |
| 2026-04-25 07:46 | 16.37275 | 95.66232 | 31821 ft | 466 kts | 297° |
| 2026-04-25 07:46 | 16.40229 | 95.60220 | 31804 ft | 466 kts | 297° |
| 2026-04-25 07:47 | 16.43175 | 95.54218 | 31796 ft | 467 kts | 297° |
| 2026-04-25 07:47 | 16.46134 | 95.48185 | 31803 ft | 466 kts | 297° |
| 2026-04-25 07:48 | 16.49089 | 95.42154 | 31803 ft | 466 kts | 297° |
| 2026-04-25 07:48 | 16.52047 | 95.36113 | 31803 ft | 468 kts | 297° |
| 2026-04-25 07:49 | 16.55024 | 95.30026 | 31815 ft | 467 kts | 297° |
| 2026-04-25 07:49 | 16.57960 | 95.24019 | 31810 ft | 466 kts | 297° |
| 2026-04-25 07:50 | 16.60914 | 95.17969 | 31808 ft | 467 kts | 297° |
| 2026-04-25 07:50 | 16.63860 | 95.11929 | 31804 ft | 467 kts | 297° |
| 2026-04-25 07:51 | 16.66807 | 95.05882 | 31801 ft | 464 kts | 297° |
| 2026-04-25 07:51 | 16.69740 | 94.99860 | 31800 ft | 465 kts | 297° |
| 2026-04-25 07:52 | 16.72666 | 94.93845 | 31802 ft | 466 kts | 297° |
| 2026-04-25 07:52 | 16.75586 | 94.87838 | 31807 ft | 465 kts | 297° |
| 2026-04-25 07:53 | 16.78516 | 94.81804 | 31815 ft | 464 kts | 297° |
| 2026-04-25 07:53 | 16.81716 | 94.75873 | 31806 ft | 466 kts | 306° |
| 2026-04-25 07:54 | 16.85761 | 94.70599 | 31802 ft | 465 kts | 308° |
| 2026-04-25 07:54 | 16.89851 | 94.65360 | 31804 ft | 464 kts | 308° |
| 2026-04-25 07:55 | 16.93904 | 94.60152 | 31805 ft | 462 kts | 308° |
| 2026-04-25 07:55 | 16.97965 | 94.54921 | 31817 ft | 463 kts | 308° |
| 2026-04-25 07:56 | 17.01993 | 94.49725 | 31810 ft | 460 kts | 308° |
| 2026-04-25 07:56 | 17.06067 | 94.44464 | 31811 ft | 463 kts | 308° |
| 2026-04-25 07:57 | 17.10089 | 94.39265 | 31817 ft | 460 kts | 308° |
| 2026-04-25 07:57 | 17.14168 | 94.33987 | 31829 ft | 461 kts | 308° |
| 2026-04-25 07:58 | 17.18185 | 94.28786 | 31836 ft | 461 kts | 308° |
| 2026-04-25 07:58 | 17.22240 | 94.23531 | 31836 ft | 458 kts | 308° |
| 2026-04-25 07:59 | 17.26222 | 94.18368 | 31842 ft | 459 kts | 308° |
| 2026-04-25 07:59 | 17.30263 | 94.13123 | 31836 ft | 460 kts | 307° |
| 2026-04-25 08:00 | 17.34261 | 94.07930 | 31843 ft | 461 kts | 307° |
| 2026-04-25 08:00 | 17.38280 | 94.02705 | 31836 ft | 459 kts | 308° |
| 2026-04-25 08:01 | 17.42298 | 93.97480 | 31841 ft | 459 kts | 307° |
| 2026-04-25 08:01 | 17.46276 | 93.92300 | 31839 ft | 459 kts | 307° |
| 2026-04-25 08:02 | 17.50298 | 93.87060 | 31840 ft | 458 kts | 307° |
| 2026-04-25 08:02 | 17.54296 | 93.81847 | 31840 ft | 459 kts | 308° |
| 2026-04-25 08:03 | 17.58268 | 93.76664 | 31842 ft | 458 kts | 307° |
| 2026-04-25 08:03 | 17.62282 | 93.71421 | 31844 ft | 459 kts | 307° |
| 2026-04-25 08:04 | 17.66278 | 93.66199 | 31842 ft | 459 kts | 307° |
| 2026-04-25 08:04 | 17.70269 | 93.60979 | 31841 ft | 458 kts | 307° |
| 2026-04-25 08:05 | 17.74254 | 93.55761 | 31850 ft | 460 kts | 307° |
| 2026-04-25 08:05 | 17.78231 | 93.50552 | 31843 ft | 457 kts | 307° |
| 2026-04-25 08:06 | 17.82229 | 93.45309 | 31846 ft | 459 kts | 307° |
| 2026-04-25 08:06 | 17.86188 | 93.40115 | 31850 ft | 458 kts | 307° |
| 2026-04-25 08:07 | 17.90175 | 93.34879 | 31852 ft | 457 kts | 307° |
| 2026-04-25 08:07 | 17.94180 | 93.29616 | 31862 ft | 457 kts | 307° |
| 2026-04-25 08:08 | 17.98137 | 93.24410 | 31859 ft | 457 kts | 307° |
| 2026-04-25 08:08 | 18.02110 | 93.19181 | 31850 ft | 457 kts | 307° |
| 2026-04-25 08:09 | 18.06070 | 93.13964 | 31847 ft | 455 kts | 307° |
| 2026-04-25 08:09 | 18.10045 | 93.08722 | 31846 ft | 457 kts | 307° |
| 2026-04-25 08:10 | 18.14041 | 93.03449 | 31851 ft | 457 kts | 307° |
| 2026-04-25 08:10 | 18.17997 | 92.98225 | 31849 ft | 456 kts | 307° |
| 2026-04-25 08:11 | 18.21948 | 92.93003 | 31850 ft | 457 kts | 307° |
| 2026-04-25 08:11 | 18.25920 | 92.87749 | 31851 ft | 457 kts | 307° |
| 2026-04-25 08:12 | 18.29872 | 92.82517 | 31849 ft | 457 kts | 307° |
| 2026-04-25 08:12 | 18.33824 | 92.77280 | 31851 ft | 457 kts | 307° |
| 2026-04-25 08:13 | 18.37793 | 92.72017 | 31844 ft | 457 kts | 307° |
| 2026-04-25 08:14 | 18.43717 | 92.64153 | 31846 ft | 458 kts | 307° |
| 2026-04-25 08:14 | 18.47680 | 92.58887 | 31843 ft | 457 kts | 306° |
| 2026-04-25 08:15 | 18.51639 | 92.53622 | 31844 ft | 457 kts | 306° |
| 2026-04-25 08:15 | 18.55580 | 92.48377 | 31841 ft | 458 kts | 306° |
| 2026-04-25 08:16 | 18.59542 | 92.43099 | 31834 ft | 457 kts | 306° |
| 2026-04-25 08:16 | 18.63484 | 92.37844 | 31838 ft | 458 kts | 306° |
| 2026-04-25 08:17 | 18.67435 | 92.32572 | 31849 ft | 458 kts | 306° |
| 2026-04-25 08:17 | 18.71402 | 92.27274 | 31848 ft | 458 kts | 306° |
| 2026-04-25 08:18 | 18.75347 | 92.22002 | 31847 ft | 457 kts | 306° |
| 2026-04-25 08:18 | 18.79306 | 92.16705 | 31845 ft | 458 kts | 306° |
| 2026-04-25 08:19 | 18.83244 | 92.11433 | 31849 ft | 456 kts | 306° |
| 2026-04-25 08:19 | 18.87173 | 92.06169 | 31847 ft | 456 kts | 306° |
| 2026-04-25 08:20 | 18.91102 | 92.00899 | 31845 ft | 456 kts | 305° |
| 2026-04-25 08:20 | 18.95001 | 91.95610 | 31836 ft | 455 kts | 305° |
| 2026-04-25 08:21 | 18.98874 | 91.90305 | 31829 ft | 456 kts | 305° |
| 2026-04-25 08:21 | 19.02750 | 91.84996 | 31839 ft | 454 kts | 305° |
| 2026-04-25 08:22 | 19.06599 | 91.79720 | 31847 ft | 455 kts | 305° |
| 2026-04-25 08:22 | 19.10489 | 91.74387 | 31846 ft | 455 kts | 305° |
| 2026-04-25 08:23 | 19.14340 | 91.69101 | 31846 ft | 456 kts | 305° |
| 2026-04-25 08:23 | 19.18233 | 91.63753 | 31845 ft | 455 kts | 305° |
| 2026-04-25 08:24 | 19.22095 | 91.58446 | 31842 ft | 455 kts | 305° |
| 2026-04-25 08:24 | 19.25937 | 91.53160 | 31842 ft | 454 kts | 305° |
| 2026-04-25 08:25 | 19.29796 | 91.47845 | 31840 ft | 453 kts | 304° |
| 2026-04-25 08:25 | 19.33635 | 91.42554 | 31840 ft | 454 kts | 305° |
| 2026-04-25 08:26 | 19.37480 | 91.37250 | 31839 ft | 453 kts | 304° |
| 2026-04-25 08:26 | 19.41334 | 91.31929 | 31851 ft | 453 kts | 304° |
| 2026-04-25 08:27 | 19.45161 | 91.26641 | 31853 ft | 452 kts | 304° |
| 2026-04-25 08:27 | 19.48975 | 91.21367 | 31848 ft | 452 kts | 304° |
| 2026-04-25 08:28 | 19.52798 | 91.16075 | 31847 ft | 451 kts | 304° |
| 2026-04-25 08:28 | 19.56604 | 91.10800 | 31848 ft | 451 kts | 304° |
| 2026-04-25 08:29 | 19.60441 | 91.05481 | 31847 ft | 452 kts | 304° |
| 2026-04-25 08:29 | 19.64259 | 91.00182 | 31849 ft | 451 kts | 304° |
| 2026-04-25 08:30 | 19.68057 | 90.94905 | 31845 ft | 452 kts | 304° |
| 2026-04-25 08:30 | 19.71880 | 90.89590 | 31837 ft | 451 kts | 304° |
| 2026-04-25 08:31 | 19.75697 | 90.84280 | 31832 ft | 452 kts | 304° |
| 2026-04-25 08:31 | 19.79512 | 90.78966 | 31828 ft | 451 kts | 304° |
| 2026-04-25 08:32 | 19.83292 | 90.73697 | 31829 ft | 450 kts | 304° |
| 2026-04-25 08:32 | 19.87092 | 90.68394 | 31827 ft | 451 kts | 304° |
| 2026-04-25 08:33 | 19.90882 | 90.63101 | 31825 ft | 451 kts | 304° |
| 2026-04-25 08:33 | 19.94679 | 90.57794 | 31820 ft | 449 kts | 304° |
| 2026-04-25 08:34 | 19.98466 | 90.52495 | 31818 ft | 450 kts | 304° |
| 2026-04-25 08:34 | 20.02255 | 90.47190 | 31819 ft | 450 kts | 304° |
| 2026-04-25 08:35 | 20.06033 | 90.41894 | 31816 ft | 449 kts | 304° |
| 2026-04-25 08:35 | 20.09815 | 90.36589 | 31817 ft | 450 kts | 304° |
| 2026-04-25 08:36 | 20.13593 | 90.31285 | 31830 ft | 448 kts | 303° |
| 2026-04-25 08:36 | 20.17360 | 90.25990 | 31831 ft | 448 kts | 303° |
| 2026-04-25 08:37 | 20.21116 | 90.20708 | 31831 ft | 447 kts | 303° |
| 2026-04-25 08:37 | 20.24865 | 90.15429 | 31829 ft | 448 kts | 303° |
| 2026-04-25 08:38 | 20.28642 | 90.10107 | 31829 ft | 448 kts | 303° |
| 2026-04-25 08:38 | 20.32373 | 90.04845 | 31827 ft | 446 kts | 303° |
| 2026-04-25 08:39 | 20.36131 | 89.99538 | 31827 ft | 448 kts | 303° |
| 2026-04-25 08:39 | 20.39870 | 89.94256 | 31826 ft | 446 kts | 303° |
| 2026-04-25 08:40 | 20.43598 | 89.88984 | 31825 ft | 446 kts | 303° |
| 2026-04-25 08:40 | 20.47350 | 89.83672 | 31822 ft | 445 kts | 303° |
| 2026-04-25 08:41 | 20.51059 | 89.78417 | 31819 ft | 446 kts | 303° |
| 2026-04-25 08:41 | 20.54805 | 89.73104 | 31817 ft | 447 kts | 303° |
| 2026-04-25 08:42 | 20.58541 | 89.67802 | 31818 ft | 447 kts | 303° |
| 2026-04-25 08:42 | 20.62289 | 89.62477 | 31823 ft | 445 kts | 303° |
| 2026-04-25 08:43 | 20.66009 | 89.57187 | 31825 ft | 445 kts | 303° |
| 2026-04-25 08:43 | 20.69748 | 89.51864 | 31822 ft | 446 kts | 302° |
| 2026-04-25 08:44 | 20.73456 | 89.46581 | 31821 ft | 445 kts | 302° |
| 2026-04-25 08:44 | 20.77184 | 89.41264 | 31820 ft | 446 kts | 302° |
| 2026-04-25 08:45 | 20.80891 | 89.35973 | 31818 ft | 445 kts | 302° |
| 2026-04-25 08:45 | 20.84593 | 89.30684 | 31833 ft | 445 kts | 302° |
| 2026-04-25 08:46 | 20.88296 | 89.25388 | 31832 ft | 444 kts | 302° |
| 2026-04-25 08:46 | 20.91997 | 89.20090 | 31831 ft | 445 kts | 302° |
| 2026-04-25 08:47 | 20.95453 | 89.14654 | 31831 ft | 441 kts | 299° |
| 2026-04-25 08:47 | 20.98885 | 89.09142 | 31829 ft | 444 kts | 299° |
| 2026-04-25 08:48 | 21.02293 | 89.03693 | 31826 ft | 439 kts | 299° |
| 2026-04-25 08:48 | 21.05712 | 88.98225 | 31823 ft | 444 kts | 299° |
| 2026-04-25 08:49 | 21.09154 | 88.92727 | 31822 ft | 441 kts | 299° |
| 2026-04-25 08:49 | 21.12589 | 88.87235 | 31820 ft | 443 kts | 300° |
| 2026-04-25 08:50 | 21.16031 | 88.81730 | 31817 ft | 443 kts | 300° |
| 2026-04-25 08:50 | 21.19471 | 88.76223 | 31814 ft | 443 kts | 299° |
| 2026-04-25 08:51 | 21.22895 | 88.70737 | 31805 ft | 443 kts | 299° |
| 2026-04-25 08:51 | 21.26324 | 88.65237 | 31805 ft | 442 kts | 299° |
| 2026-04-25 08:52 | 21.29738 | 88.59756 | 31800 ft | 443 kts | 299° |
| 2026-04-25 08:52 | 21.33149 | 88.54273 | 31794 ft | 442 kts | 299° |
| 2026-04-25 08:53 | 21.36608 | 88.48802 | 31790 ft | 444 kts | 300° |
| 2026-04-25 08:53 | 21.40095 | 88.43353 | 31786 ft | 443 kts | 300° |
| 2026-04-25 08:54 | 21.43579 | 88.37896 | 31787 ft | 442 kts | 300° |
| 2026-04-25 08:54 | 21.47079 | 88.32405 | 31803 ft | 443 kts | 299° |
| 2026-04-25 08:55 | 21.50570 | 88.26921 | 31803 ft | 443 kts | 299° |
| 2026-04-25 08:55 | 21.54032 | 88.21479 | 31802 ft | 442 kts | 299° |
| 2026-04-25 08:56 | 21.57515 | 88.15995 | 31799 ft | 443 kts | 299° |
| 2026-04-25 08:56 | 21.60978 | 88.10539 | 31796 ft | 442 kts | 299° |
| 2026-04-25 08:57 | 21.64439 | 88.05080 | 31793 ft | 442 kts | 299° |
| 2026-04-25 08:57 | 21.67890 | 87.99631 | 31789 ft | 441 kts | 299° |
| 2026-04-25 08:58 | 21.71352 | 87.94160 | 31782 ft | 442 kts | 299° |
| 2026-04-25 08:58 | 21.74806 | 87.88694 | 31775 ft | 442 kts | 299° |
| 2026-04-25 08:59 | 21.78260 | 87.83225 | 31776 ft | 440 kts | 299° |
| 2026-04-25 08:59 | 21.81724 | 87.77733 | 31784 ft | 442 kts | 298° |
| 2026-04-25 09:00 | 21.85177 | 87.72254 | 31788 ft | 440 kts | 299° |
| 2026-04-25 09:00 | 21.88632 | 87.66766 | 31777 ft | 442 kts | 298° |
| 2026-04-25 09:01 | 21.92058 | 87.61319 | 31775 ft | 438 kts | 298° |
| 2026-04-25 09:01 | 21.95491 | 87.55853 | 31770 ft | 440 kts | 298° |
| 2026-04-25 09:02 | 21.98916 | 87.50397 | 31759 ft | 440 kts | 298° |
| 2026-04-25 09:02 | 22.02342 | 87.44933 | 31757 ft | 441 kts | 298° |
| 2026-04-25 09:03 | 22.05792 | 87.39424 | 31748 ft | 440 kts | 298° |
| 2026-04-25 09:03 | 22.09198 | 87.33981 | 31775 ft | 438 kts | 298° |
| 2026-04-25 09:04 | 22.12613 | 87.28518 | 31782 ft | 439 kts | 298° |
| 2026-04-25 09:04 | 22.16037 | 87.23035 | 31775 ft | 437 kts | 298° |
| 2026-04-25 09:05 | 22.19444 | 87.17574 | 31763 ft | 437 kts | 298° |
| 2026-04-25 09:05 | 22.22857 | 87.12096 | 31745 ft | 437 kts | 298° |
| 2026-04-25 09:06 | 22.26246 | 87.06651 | 31748 ft | 437 kts | 298° |
| 2026-04-25 09:06 | 22.29659 | 87.01164 | 31739 ft | 439 kts | 298° |
| 2026-04-25 09:07 | 22.33044 | 86.95716 | 31743 ft | 437 kts | 298° |
| 2026-04-25 09:07 | 22.36445 | 86.90234 | 31741 ft | 439 kts | 298° |
| 2026-04-25 09:08 | 22.39844 | 86.84753 | 31738 ft | 438 kts | 298° |
| 2026-04-25 09:08 | 22.43234 | 86.79280 | 31749 ft | 439 kts | 298° |
| 2026-04-25 09:09 | 22.46643 | 86.73769 | 31748 ft | 439 kts | 298° |
| 2026-04-25 09:09 | 22.50024 | 86.68301 | 31741 ft | 437 kts | 298° |
| 2026-04-25 09:10 | 22.53416 | 86.62806 | 31730 ft | 436 kts | 298° |
| 2026-04-25 09:10 | 22.56774 | 86.57362 | 31731 ft | 437 kts | 298° |
| 2026-04-25 09:11 | 22.61861 | 86.49103 | 31738 ft | 438 kts | 298° |
| 2026-04-25 09:11 | 22.65232 | 86.43624 | 31742 ft | 437 kts | 297° |
| 2026-04-25 09:12 | 22.68620 | 86.38112 | 31748 ft | 438 kts | 297° |
| 2026-04-25 09:12 | 22.71996 | 86.32611 | 31760 ft | 439 kts | 297° |
| 2026-04-25 09:13 | 22.75378 | 86.27099 | 31755 ft | 436 kts | 297° |
| 2026-04-25 09:13 | 22.78747 | 86.21597 | 31753 ft | 437 kts | 297° |
| 2026-04-25 09:14 | 22.82285 | 86.16190 | 31758 ft | 443 kts | 304° |
| 2026-04-25 09:14 | 22.86414 | 86.11185 | 31756 ft | 446 kts | 305° |
| 2026-04-25 09:15 | 22.90582 | 86.06153 | 31757 ft | 445 kts | 304° |
| 2026-04-25 09:15 | 22.94736 | 86.01125 | 31756 ft | 447 kts | 305° |
| 2026-04-25 09:16 | 22.98887 | 85.96090 | 31760 ft | 446 kts | 304° |
| 2026-04-25 09:16 | 23.03059 | 85.91020 | 31764 ft | 446 kts | 305° |
| 2026-04-25 09:17 | 23.09275 | 85.83458 | 31768 ft | 446 kts | 305° |
| 2026-04-25 09:18 | 23.13432 | 85.78392 | 31764 ft | 446 kts | 304° |
| 2026-04-25 09:18 | 23.17599 | 85.73308 | 31763 ft | 447 kts | 305° |
| 2026-04-25 09:19 | 23.21726 | 85.68269 | 31777 ft | 447 kts | 305° |
| 2026-04-25 09:19 | 23.25864 | 85.63212 | 31805 ft | 446 kts | 305° |
| 2026-04-25 09:20 | 23.29982 | 85.58173 | 31826 ft | 446 kts | 305° |
| 2026-04-25 09:20 | 23.34124 | 85.53100 | 31842 ft | 445 kts | 305° |
| 2026-04-25 09:21 | 23.38211 | 85.48090 | 31864 ft | 444 kts | 305° |
| 2026-04-25 09:21 | 23.42353 | 85.43005 | 31870 ft | 444 kts | 305° |
| 2026-04-25 09:22 | 23.46465 | 85.37953 | 31872 ft | 444 kts | 305° |
| 2026-04-25 09:22 | 23.50552 | 85.32928 | 31898 ft | 443 kts | 304° |
| 2026-04-25 09:23 | 23.54680 | 85.27844 | 31891 ft | 444 kts | 305° |
| 2026-04-25 09:23 | 23.58771 | 85.22804 | 31893 ft | 443 kts | 304° |
| 2026-04-25 09:24 | 23.62870 | 85.17748 | 31894 ft | 442 kts | 305° |
| 2026-04-25 09:24 | 23.66973 | 85.12680 | 31887 ft | 443 kts | 305° |
| 2026-04-25 09:25 | 23.71062 | 85.07626 | 31878 ft | 443 kts | 304° |
| 2026-04-25 09:25 | 23.75170 | 85.02541 | 31867 ft | 446 kts | 304° |
| 2026-04-25 09:26 | 23.79272 | 84.97463 | 31862 ft | 441 kts | 305° |
| 2026-04-25 09:26 | 23.83351 | 84.92403 | 31861 ft | 445 kts | 305° |
| 2026-04-25 09:27 | 23.87446 | 84.87322 | 31860 ft | 442 kts | 305° |
| 2026-04-25 09:27 | 23.91532 | 84.82244 | 31844 ft | 445 kts | 305° |
| 2026-04-25 09:28 | 23.95636 | 84.77140 | 31832 ft | 444 kts | 305° |
| 2026-04-25 09:28 | 23.99735 | 84.72035 | 31816 ft | 446 kts | 305° |
| 2026-04-25 09:29 | 24.03836 | 84.66924 | 31797 ft | 447 kts | 306° |
| 2026-04-25 09:29 | 24.07924 | 84.61823 | 31796 ft | 445 kts | 306° |
| 2026-04-25 09:30 | 24.12050 | 84.56668 | 31768 ft | 449 kts | 306° |
| 2026-04-25 09:30 | 24.16202 | 84.51478 | 31755 ft | 449 kts | 306° |
| 2026-04-25 09:31 | 24.20301 | 84.46348 | 31750 ft | 447 kts | 306° |
| 2026-04-25 09:31 | 24.24412 | 84.41170 | 31759 ft | 449 kts | 306° |
| 2026-04-25 09:32 | 24.28513 | 84.35990 | 31760 ft | 449 kts | 306° |
| 2026-04-25 09:32 | 24.32641 | 84.30771 | 31767 ft | 451 kts | 306° |
| 2026-04-25 09:33 | 24.36776 | 84.25538 | 31762 ft | 452 kts | 306° |
| 2026-04-25 09:33 | 24.40887 | 84.20330 | 31744 ft | 450 kts | 306° |
| 2026-04-25 09:34 | 24.45024 | 84.15082 | 31727 ft | 454 kts | 306° |
| 2026-04-25 09:34 | 24.49155 | 84.09840 | 31720 ft | 451 kts | 306° |
| 2026-04-25 09:35 | 24.53277 | 84.04600 | 31710 ft | 455 kts | 306° |
| 2026-04-25 09:35 | 24.57442 | 83.99300 | 31727 ft | 456 kts | 307° |
| 2026-04-25 09:36 | 24.61587 | 83.94022 | 31737 ft | 457 kts | 306° |
| 2026-04-25 09:36 | 24.65758 | 83.88702 | 31737 ft | 459 kts | 307° |
| 2026-04-25 09:37 | 24.69935 | 83.83371 | 31737 ft | 457 kts | 307° |
| 2026-04-25 09:37 | 24.74121 | 83.78020 | 31726 ft | 459 kts | 307° |
| 2026-04-25 09:38 | 24.78315 | 83.72654 | 31711 ft | 459 kts | 307° |
| 2026-04-25 09:38 | 24.82480 | 83.67319 | 31720 ft | 460 kts | 307° |
| 2026-04-25 09:39 | 24.86653 | 83.61968 | 31719 ft | 461 kts | 307° |
| 2026-04-25 09:39 | 24.90873 | 83.56550 | 31725 ft | 463 kts | 308° |
| 2026-04-25 09:40 | 24.97183 | 83.48438 | 31704 ft | 464 kts | 308° |
| 2026-04-25 09:40 | 25.01416 | 83.42986 | 31689 ft | 465 kts | 308° |
| 2026-04-25 09:41 | 25.05627 | 83.37560 | 31682 ft | 467 kts | 308° |
| 2026-04-25 09:41 | 25.09863 | 83.32093 | 31683 ft | 465 kts | 308° |
| 2026-04-25 09:42 | 25.14112 | 83.26603 | 31684 ft | 466 kts | 308° |
| 2026-04-25 09:42 | 25.18338 | 83.21137 | 31691 ft | 466 kts | 308° |
| 2026-04-25 09:43 | 25.22567 | 83.15659 | 31688 ft | 467 kts | 308° |
| 2026-04-25 09:43 | 25.26809 | 83.10159 | 31693 ft | 466 kts | 308° |
| 2026-04-25 09:44 | 25.31016 | 83.04699 | 31694 ft | 468 kts | 308° |
| 2026-04-25 09:44 | 25.35289 | 82.99145 | 31707 ft | 468 kts | 309° |
| 2026-04-25 09:45 | 25.39520 | 82.93640 | 31705 ft | 468 kts | 309° |
| 2026-04-25 09:45 | 25.43759 | 82.88117 | 31706 ft | 469 kts | 309° |
| 2026-04-25 09:46 | 25.47899 | 82.82461 | 31704 ft | 469 kts | 306° |
| 2026-04-25 09:46 | 25.51786 | 82.76646 | 31699 ft | 468 kts | 306° |
| 2026-04-25 09:47 | 25.55684 | 82.70838 | 31699 ft | 470 kts | 306° |
| 2026-04-25 09:47 | 25.59602 | 82.65013 | 31705 ft | 470 kts | 306° |
| 2026-04-25 09:48 | 25.63540 | 82.59163 | 31696 ft | 470 kts | 306° |
| 2026-04-25 09:48 | 25.67498 | 82.53281 | 31690 ft | 473 kts | 306° |
| 2026-04-25 09:49 | 25.71424 | 82.47443 | 31688 ft | 473 kts | 306° |
| 2026-04-25 09:49 | 25.75372 | 82.41567 | 31684 ft | 472 kts | 307° |
| 2026-04-25 09:50 | 25.79313 | 82.35693 | 31686 ft | 473 kts | 307° |
| 2026-04-25 09:50 | 25.83192 | 82.29906 | 31687 ft | 474 kts | 306° |
| 2026-04-25 09:51 | 25.87142 | 82.24006 | 31682 ft | 476 kts | 306° |
| 2026-04-25 09:51 | 25.91095 | 82.18094 | 31690 ft | 476 kts | 307° |
| 2026-04-25 09:52 | 25.95079 | 82.12127 | 31688 ft | 475 kts | 307° |
| 2026-04-25 09:52 | 25.99023 | 82.06213 | 31688 ft | 477 kts | 307° |
| 2026-04-25 09:53 | 26.02988 | 82.00260 | 31690 ft | 476 kts | 307° |
| 2026-04-25 09:53 | 26.06969 | 81.94275 | 31686 ft | 477 kts | 307° |
| 2026-04-25 09:54 | 26.10963 | 81.88263 | 31688 ft | 478 kts | 307° |
| 2026-04-25 09:54 | 26.14904 | 81.82323 | 31689 ft | 476 kts | 307° |
| 2026-04-25 09:55 | 26.18832 | 81.76394 | 31685 ft | 477 kts | 307° |
| 2026-04-25 09:55 | 26.22783 | 81.70422 | 31687 ft | 476 kts | 307° |
| 2026-04-25 09:56 | 26.26745 | 81.64429 | 31683 ft | 476 kts | 307° |
| 2026-04-25 09:56 | 26.30667 | 81.58485 | 31685 ft | 476 kts | 307° |
| 2026-04-25 09:57 | 26.34635 | 81.52466 | 31686 ft | 478 kts | 307° |
| 2026-04-25 09:57 | 26.38572 | 81.46486 | 31690 ft | 477 kts | 307° |
| 2026-04-25 09:58 | 26.42489 | 81.40527 | 31689 ft | 476 kts | 307° |
| 2026-04-25 09:58 | 26.46431 | 81.34523 | 31692 ft | 477 kts | 307° |
| 2026-04-25 09:59 | 26.50351 | 81.28545 | 31688 ft | 476 kts | 307° |
| 2026-04-25 09:59 | 26.54265 | 81.22568 | 31688 ft | 475 kts | 307° |
| 2026-04-25 10:00 | 26.58184 | 81.16574 | 31681 ft | 475 kts | 307° |
| 2026-04-25 10:00 | 26.62079 | 81.10611 | 31678 ft | 474 kts | 307° |
| 2026-04-25 10:01 | 26.65993 | 81.04610 | 31686 ft | 475 kts | 307° |
| 2026-04-25 10:01 | 26.69928 | 80.98568 | 31690 ft | 475 kts | 307° |
| 2026-04-25 10:02 | 26.73840 | 80.92555 | 31691 ft | 476 kts | 307° |
| 2026-04-25 10:02 | 26.77842 | 80.86627 | 31697 ft | 475 kts | 311° |
| 2026-04-25 10:03 | 26.82181 | 80.81046 | 31693 ft | 475 kts | 312° |
| 2026-04-25 10:03 | 26.86545 | 80.75401 | 31688 ft | 474 kts | 312° |
| 2026-04-25 10:04 | 26.90842 | 80.69805 | 31687 ft | 474 kts | 311° |
| 2026-04-25 10:04 | 26.95178 | 80.64135 | 31686 ft | 475 kts | 311° |
| 2026-04-25 10:05 | 26.99485 | 80.58488 | 31682 ft | 474 kts | 311° |
| 2026-04-25 10:05 | 27.03788 | 80.52831 | 31681 ft | 475 kts | 311° |
| 2026-04-25 10:06 | 27.08112 | 80.47140 | 31678 ft | 474 kts | 311° |
| 2026-04-25 10:06 | 27.12386 | 80.41504 | 31679 ft | 475 kts | 311° |
| 2026-04-25 10:07 | 27.16671 | 80.35846 | 31675 ft | 475 kts | 311° |
| 2026-04-25 10:07 | 27.20960 | 80.30176 | 31671 ft | 474 kts | 311° |
| 2026-04-25 10:08 | 27.25240 | 80.24509 | 31667 ft | 475 kts | 311° |
| 2026-04-25 10:08 | 27.29511 | 80.18848 | 31670 ft | 473 kts | 311° |
| 2026-04-25 10:09 | 27.33824 | 80.13122 | 31678 ft | 474 kts | 311° |
| 2026-04-25 10:09 | 27.38099 | 80.07439 | 31683 ft | 474 kts | 311° |
| 2026-04-25 10:10 | 27.42375 | 80.01749 | 31683 ft | 473 kts | 311° |
| 2026-04-25 10:10 | 27.46638 | 79.96067 | 31684 ft | 473 kts | 311° |
| 2026-04-25 10:11 | 27.50910 | 79.90367 | 31683 ft | 473 kts | 311° |
| 2026-04-25 10:11 | 27.55176 | 79.84666 | 31684 ft | 474 kts | 311° |
| 2026-04-25 10:12 | 27.59433 | 79.78971 | 31684 ft | 472 kts | 311° |
| 2026-04-25 10:13 | 27.65814 | 79.70419 | 31685 ft | 473 kts | 311° |
| 2026-04-25 10:13 | 27.70044 | 79.64747 | 31681 ft | 472 kts | 312° |
| 2026-04-25 10:14 | 27.74717 | 79.59460 | 31681 ft | 472 kts | 316° |
| 2026-04-25 10:14 | 27.79442 | 79.54248 | 31680 ft | 473 kts | 316° |
| 2026-04-25 10:15 | 27.84136 | 79.49023 | 31682 ft | 472 kts | 316° |
| 2026-04-25 10:15 | 27.88831 | 79.43768 | 31685 ft | 472 kts | 316° |
| 2026-04-25 10:16 | 27.93517 | 79.38505 | 31680 ft | 471 kts | 316° |
| 2026-04-25 10:16 | 27.98200 | 79.33232 | 31680 ft | 472 kts | 315° |
| 2026-04-25 10:17 | 28.02856 | 79.27981 | 31687 ft | 472 kts | 315° |
| 2026-04-25 10:17 | 28.07523 | 79.22707 | 31689 ft | 471 kts | 315° |
| 2026-04-25 10:18 | 28.12194 | 79.17422 | 31694 ft | 473 kts | 315° |
| 2026-04-25 10:18 | 28.16840 | 79.12157 | 31694 ft | 472 kts | 315° |
| 2026-04-25 10:19 | 28.21485 | 79.06887 | 31695 ft | 471 kts | 315° |
| 2026-04-25 10:19 | 28.26157 | 79.01579 | 31696 ft | 472 kts | 315° |
| 2026-04-25 10:20 | 28.30808 | 78.96288 | 31694 ft | 471 kts | 314° |
| 2026-04-25 10:20 | 28.35465 | 78.90983 | 31694 ft | 470 kts | 315° |
| 2026-04-25 10:21 | 28.40107 | 78.85689 | 31692 ft | 470 kts | 314° |
| 2026-04-25 10:21 | 28.44737 | 78.80400 | 31696 ft | 471 kts | 314° |
| 2026-04-25 10:22 | 28.49724 | 78.75513 | 31707 ft | 471 kts | 322° |
| 2026-04-25 10:22 | 28.54961 | 78.70984 | 31712 ft | 472 kts | 322° |
| 2026-04-25 10:23 | 28.60202 | 78.66442 | 31711 ft | 470 kts | 322° |
| 2026-04-25 10:23 | 28.65450 | 78.61884 | 31710 ft | 472 kts | 322° |
| 2026-04-25 10:24 | 28.70682 | 78.57332 | 31713 ft | 471 kts | 321° |
| 2026-04-25 10:24 | 28.75914 | 78.52772 | 31715 ft | 471 kts | 321° |
| 2026-04-25 10:25 | 28.81178 | 78.48177 | 31712 ft | 472 kts | 321° |
| 2026-04-25 10:25 | 28.86388 | 78.43624 | 31713 ft | 470 kts | 321° |
| 2026-04-25 10:26 | 28.91597 | 78.39066 | 31714 ft | 471 kts | 321° |
| 2026-04-25 10:26 | 28.96849 | 78.34464 | 31715 ft | 470 kts | 321° |
| 2026-04-25 10:27 | 29.02026 | 78.29922 | 31721 ft | 470 kts | 321° |
| 2026-04-25 10:27 | 29.07261 | 78.25321 | 31725 ft | 469 kts | 320° |
| 2026-04-25 10:28 | 29.12448 | 78.20759 | 31731 ft | 471 kts | 321° |
| 2026-04-25 10:28 | 29.17657 | 78.16170 | 31736 ft | 472 kts | 320° |
| 2026-04-25 10:29 | 29.22843 | 78.11596 | 31739 ft | 470 kts | 320° |
| 2026-04-25 10:29 | 29.28045 | 78.07001 | 31736 ft | 470 kts | 320° |
| 2026-04-25 10:30 | 29.33260 | 78.02389 | 31732 ft | 470 kts | 320° |
| 2026-04-25 10:30 | 29.38462 | 77.97783 | 31732 ft | 470 kts | 320° |
| 2026-04-25 10:31 | 29.43695 | 77.93143 | 31733 ft | 470 kts | 320° |
| 2026-04-25 10:31 | 29.48900 | 77.88520 | 31734 ft | 471 kts | 320° |
| 2026-04-25 10:32 | 29.54108 | 77.83890 | 31737 ft | 471 kts | 320° |
| 2026-04-25 10:32 | 29.59293 | 77.79275 | 31739 ft | 470 kts | 320° |
| 2026-04-25 10:33 | 29.64516 | 77.74618 | 31741 ft | 470 kts | 320° |
| 2026-04-25 10:33 | 29.69722 | 77.69971 | 31741 ft | 470 kts | 320° |
| 2026-04-25 10:34 | 29.74886 | 77.65354 | 31744 ft | 470 kts | 320° |
| 2026-04-25 10:34 | 29.80080 | 77.60706 | 31742 ft | 469 kts | 320° |
| 2026-04-25 10:35 | 29.85278 | 77.56047 | 31745 ft | 470 kts | 320° |
| 2026-04-25 10:35 | 29.90448 | 77.51406 | 31746 ft | 470 kts | 320° |
| 2026-04-25 10:36 | 29.95645 | 77.46736 | 31747 ft | 469 kts | 320° |
| 2026-04-25 10:36 | 30.01056 | 77.42523 | 31748 ft | 472 kts | 330° |
| 2026-04-25 10:37 | 30.06947 | 77.39101 | 31743 ft | 471 kts | 331° |
| 2026-04-25 10:37 | 30.12815 | 77.35706 | 31743 ft | 471 kts | 331° |
| 2026-04-25 10:38 | 30.18630 | 77.32329 | 31780 ft | 471 kts | 330° |
| 2026-04-25 10:38 | 30.24493 | 77.28916 | 31786 ft | 470 kts | 330° |
| 2026-04-25 10:39 | 30.30377 | 77.25484 | 31805 ft | 471 kts | 330° |
| 2026-04-25 10:39 | 30.36279 | 77.22002 | 31827 ft | 469 kts | 327° |
| 2026-04-25 10:40 | 30.41376 | 77.17419 | 31846 ft | 464 kts | 311° |
| 2026-04-25 10:40 | 30.45423 | 77.11587 | 31865 ft | 462 kts | 306° |
| 2026-04-25 10:41 | 30.49328 | 77.05634 | 31862 ft | 461 kts | 306° |
| 2026-04-25 10:41 | 30.53231 | 76.99670 | 31858 ft | 461 kts | 306° |
| 2026-04-25 10:42 | 30.57137 | 76.93691 | 31856 ft | 462 kts | 306° |
| 2026-04-25 10:42 | 30.61018 | 76.87742 | 31845 ft | 461 kts | 306° |
| 2026-04-25 10:43 | 30.64897 | 76.81787 | 31841 ft | 460 kts | 306° |
| 2026-04-25 10:43 | 30.68474 | 76.75597 | 31836 ft | 459 kts | 296° |
| 2026-04-25 10:44 | 30.70945 | 76.68758 | 31843 ft | 458 kts | 291° |
| 2026-04-25 10:44 | 30.73306 | 76.61883 | 31831 ft | 458 kts | 291° |
| 2026-04-25 10:45 | 30.75686 | 76.54939 | 31826 ft | 458 kts | 291° |
| 2026-04-25 10:45 | 30.78044 | 76.48042 | 31815 ft | 457 kts | 291° |
| 2026-04-25 10:46 | 30.80403 | 76.41127 | 31816 ft | 459 kts | 291° |
| 2026-04-25 10:46 | 30.82760 | 76.34206 | 31821 ft | 458 kts | 291° |
| 2026-04-25 10:47 | 30.85105 | 76.27309 | 31802 ft | 458 kts | 291° |
| 2026-04-25 10:47 | 30.87443 | 76.20414 | 31798 ft | 459 kts | 291° |
| 2026-04-25 10:48 | 30.89776 | 76.13520 | 31784 ft | 458 kts | 291° |
| 2026-04-25 10:48 | 30.92121 | 76.06576 | 31791 ft | 457 kts | 291° |
| 2026-04-25 10:49 | 30.94462 | 75.99633 | 31773 ft | 457 kts | 291° |
| 2026-04-25 10:49 | 30.96797 | 75.92690 | 31769 ft | 457 kts | 291° |
| 2026-04-25 10:50 | 30.99110 | 75.85798 | 31765 ft | 456 kts | 291° |
| 2026-04-25 10:50 | 31.01419 | 75.78904 | 31765 ft | 456 kts | 291° |
| 2026-04-25 10:51 | 31.03719 | 75.72026 | 31769 ft | 454 kts | 291° |
| 2026-04-25 10:51 | 31.06021 | 75.65123 | 31772 ft | 453 kts | 291° |
| 2026-04-25 10:52 | 31.08316 | 75.58230 | 31770 ft | 454 kts | 291° |
| 2026-04-25 10:52 | 31.10587 | 75.51393 | 31770 ft | 454 kts | 291° |
| 2026-04-25 10:53 | 31.12617 | 75.44405 | 31773 ft | 454 kts | 287° |
| 2026-04-25 10:53 | 31.14419 | 75.37319 | 31766 ft | 452 kts | 287° |
| 2026-04-25 10:54 | 31.16200 | 75.30293 | 31778 ft | 453 kts | 286° |
| 2026-04-25 10:54 | 31.17978 | 75.23267 | 31774 ft | 451 kts | 286° |
| 2026-04-25 10:55 | 31.19754 | 75.16235 | 31770 ft | 452 kts | 286° |
| 2026-04-25 10:55 | 31.21531 | 75.09180 | 31772 ft | 451 kts | 286° |
| 2026-04-25 10:56 | 31.23304 | 75.02125 | 31772 ft | 451 kts | 286° |
| 2026-04-25 10:56 | 31.25072 | 74.95069 | 31772 ft | 450 kts | 287° |
| 2026-04-25 10:57 | 31.26829 | 74.88042 | 31770 ft | 451 kts | 286° |
| 2026-04-25 10:57 | 31.28594 | 74.80964 | 31767 ft | 450 kts | 286° |
| 2026-04-25 10:58 | 31.30341 | 74.73940 | 31770 ft | 450 kts | 286° |
| 2026-04-25 10:58 | 31.32091 | 74.66885 | 31773 ft | 450 kts | 286° |
| 2026-04-25 10:59 | 31.33842 | 74.59809 | 31776 ft | 450 kts | 286° |
| 2026-04-25 10:59 | 31.35462 | 74.52736 | 31783 ft | 450 kts | 283° |
| 2026-04-25 11:00 | 31.36769 | 74.45658 | 31780 ft | 449 kts | 283° |
| 2026-04-25 11:00 | 31.38109 | 74.38458 | 31779 ft | 448 kts | 283° |
| 2026-04-25 11:01 | 31.39443 | 74.31333 | 31789 ft | 448 kts | 282° |
| 2026-04-25 11:01 | 31.40782 | 74.24187 | 31789 ft | 448 kts | 282° |
| 2026-04-25 11:02 | 31.42115 | 74.17072 | 31786 ft | 448 kts | 282° |
| 2026-04-25 11:02 | 31.43456 | 74.09901 | 31781 ft | 448 kts | 283° |
| 2026-04-25 11:03 | 31.44616 | 74.02691 | 31776 ft | 449 kts | 275° |
| 2026-04-25 11:03 | 31.44372 | 73.95403 | 31775 ft | 450 kts | 265° |
| 2026-04-25 11:04 | 31.43643 | 73.88096 | 31774 ft | 450 kts | 265° |
| 2026-04-25 11:04 | 31.42910 | 73.80830 | 31772 ft | 449 kts | 265° |
| 2026-04-25 11:05 | 31.42168 | 73.73515 | 31770 ft | 448 kts | 265° |
| 2026-04-25 11:05 | 31.41417 | 73.66188 | 31768 ft | 449 kts | 265° |
| 2026-04-25 11:06 | 31.40667 | 73.58924 | 31772 ft | 448 kts | 265° |
| 2026-04-25 11:06 | 31.39910 | 73.51624 | 31773 ft | 447 kts | 265° |
| 2026-04-25 11:07 | 31.39151 | 73.44350 | 31771 ft | 447 kts | 265° |
| 2026-04-25 11:07 | 31.38391 | 73.37100 | 31775 ft | 447 kts | 265° |
| 2026-04-25 11:08 | 31.37631 | 73.29894 | 31790 ft | 446 kts | 265° |
| 2026-04-25 11:08 | 31.36866 | 73.22678 | 31792 ft | 446 kts | 265° |
| 2026-04-25 11:09 | 31.36095 | 73.15448 | 31792 ft | 446 kts | 265° |
| 2026-04-25 11:09 | 31.35321 | 73.08227 | 31793 ft | 446 kts | 265° |
| 2026-04-25 11:10 | 31.34540 | 73.00986 | 31794 ft | 445 kts | 265° |
| 2026-04-25 11:10 | 31.33763 | 72.93812 | 31793 ft | 445 kts | 265° |
| 2026-04-25 11:11 | 31.32974 | 72.86558 | 31791 ft | 445 kts | 265° |
| 2026-04-25 11:11 | 31.32186 | 72.79365 | 31788 ft | 444 kts | 265° |
| 2026-04-25 11:12 | 31.31393 | 72.72148 | 31782 ft | 445 kts | 265° |
| 2026-04-25 11:12 | 31.30597 | 72.64949 | 31778 ft | 444 kts | 265° |
| 2026-04-25 11:13 | 31.29797 | 72.57755 | 31776 ft | 444 kts | 265° |
| 2026-04-25 11:13 | 31.28991 | 72.50539 | 31774 ft | 445 kts | 265° |
| 2026-04-25 11:14 | 31.28180 | 72.43320 | 31768 ft | 443 kts | 265° |
| 2026-04-25 11:14 | 31.27446 | 72.36133 | 31764 ft | 441 kts | 270° |
| 2026-04-25 11:15 | 31.27990 | 72.29015 | 31774 ft | 440 kts | 284° |
| 2026-04-25 11:15 | 31.30145 | 72.22388 | 31776 ft | 438 kts | 297° |
| 2026-04-25 11:16 | 31.34526 | 72.12987 | 31784 ft | 439 kts | 298° |
| 2026-04-25 11:16 | 31.37454 | 72.06687 | 31790 ft | 435 kts | 298° |
| 2026-04-25 11:17 | 31.40375 | 72.00383 | 31789 ft | 437 kts | 298° |
| 2026-04-25 11:17 | 31.43267 | 71.94124 | 31790 ft | 437 kts | 298° |
| 2026-04-25 11:18 | 31.46174 | 71.87820 | 31790 ft | 437 kts | 298° |
| 2026-04-25 11:18 | 31.49066 | 71.81537 | 31791 ft | 438 kts | 297° |
| 2026-04-25 11:19 | 31.51979 | 71.75196 | 31788 ft | 437 kts | 297° |
| 2026-04-25 11:19 | 31.54856 | 71.68922 | 31784 ft | 434 kts | 298° |
| 2026-04-25 11:20 | 31.57737 | 71.62630 | 31780 ft | 436 kts | 297° |
| 2026-04-25 11:20 | 31.60616 | 71.56328 | 31780 ft | 433 kts | 297° |
| 2026-04-25 11:21 | 31.63482 | 71.50038 | 31785 ft | 434 kts | 298° |
| 2026-04-25 11:21 | 31.66335 | 71.43768 | 31787 ft | 433 kts | 298° |
| 2026-04-25 11:22 | 31.68724 | 71.38512 | 31785 ft | 436 kts | 297° |
| 2026-04-25 11:22 | 31.72050 | 71.31176 | 31802 ft | 433 kts | 297° |
| 2026-04-25 11:23 | 31.74883 | 71.24918 | 31808 ft | 434 kts | 297° |
| 2026-04-25 11:23 | 31.77733 | 71.18613 | 31805 ft | 434 kts | 297° |
| 2026-04-25 11:24 | 31.80558 | 71.12350 | 31804 ft | 431 kts | 298° |
| 2026-04-25 11:24 | 31.83394 | 71.06054 | 31803 ft | 435 kts | 297° |
| 2026-04-25 11:25 | 31.86231 | 70.99745 | 31803 ft | 433 kts | 297° |
| 2026-04-25 11:25 | 31.89557 | 70.93859 | 31808 ft | 432 kts | 310° |
| 2026-04-25 11:26 | 31.94101 | 70.89212 | 31806 ft | 439 kts | 324° |
| 2026-04-25 11:26 | 31.99664 | 70.86131 | 31810 ft | 448 kts | 338° |
| 2026-04-25 11:27 | 32.05790 | 70.84383 | 31819 ft | 450 kts | 342° |
| 2026-04-25 11:27 | 32.10892 | 70.82996 | 31832 ft | 450 kts | 342° |
| 2026-04-25 11:28 | 32.18028 | 70.81022 | 31845 ft | 451 kts | 342° |
| 2026-04-25 11:28 | 32.24136 | 70.79316 | 31842 ft | 449 kts | 341° |
| 2026-04-25 11:29 | 32.30226 | 70.77606 | 31844 ft | 451 kts | 341° |
| 2026-04-25 11:29 | 32.36375 | 70.75874 | 31858 ft | 448 kts | 341° |
| 2026-04-25 11:30 | 32.42518 | 70.74140 | 31860 ft | 450 kts | 341° |
| 2026-04-25 11:30 | 32.48704 | 70.72389 | 31866 ft | 451 kts | 341° |
| 2026-04-25 11:31 | 32.54823 | 70.70657 | 31873 ft | 449 kts | 341° |
| 2026-04-25 11:31 | 32.60955 | 70.68916 | 31879 ft | 452 kts | 341° |
| 2026-04-25 11:32 | 32.67109 | 70.67169 | 31879 ft | 446 kts | 341° |
| 2026-04-25 11:32 | 32.73263 | 70.65416 | 31890 ft | 451 kts | 340° |
| 2026-04-25 11:33 | 32.79371 | 70.63676 | 31881 ft | 447 kts | 341° |
| 2026-04-25 11:33 | 32.85483 | 70.61931 | 31873 ft | 449 kts | 340° |
| 2026-04-25 11:34 | 32.91582 | 70.60188 | 31888 ft | 448 kts | 341° |
| 2026-04-25 11:34 | 32.97886 | 70.59197 | 31904 ft | 456 kts | 349° |
| 2026-04-25 11:35 | 33.04227 | 70.58597 | 31912 ft | 458 kts | 349° |
| 2026-04-25 11:35 | 33.10565 | 70.57996 | 31963 ft | 457 kts | 349° |
| 2026-04-25 11:36 | 33.16900 | 70.57388 | 31999 ft | 458 kts | 349° |
| 2026-04-25 11:36 | 33.23293 | 70.56775 | 32011 ft | 456 kts | 349° |
| 2026-04-25 11:37 | 33.29673 | 70.56158 | 32041 ft | 461 kts | 349° |
| 2026-04-25 11:37 | 33.36067 | 70.55544 | 32089 ft | 457 kts | 348° |
| 2026-04-25 11:38 | 33.42472 | 70.54923 | 32087 ft | 459 kts | 349° |
| 2026-04-25 11:38 | 33.48860 | 70.54304 | 32130 ft | 461 kts | 349° |
| 2026-04-25 11:39 | 33.55283 | 70.53681 | 32176 ft | 459 kts | 349° |
| 2026-04-25 11:39 | 33.61693 | 70.53058 | 32219 ft | 461 kts | 349° |
| 2026-04-25 11:40 | 33.68059 | 70.52440 | 32254 ft | 456 kts | 349° |
| 2026-04-25 11:40 | 33.74482 | 70.51811 | 32282 ft | 461 kts | 349° |
| 2026-04-25 11:41 | 33.80881 | 70.51187 | 32300 ft | 461 kts | 349° |
| 2026-04-25 11:41 | 33.87064 | 70.49661 | 32356 ft | 448 kts | 334° |
| 2026-04-25 11:42 | 33.92482 | 70.46200 | 32385 ft | 440 kts | 319° |
| 2026-04-25 11:42 | 33.96807 | 70.41165 | 32405 ft | 427 kts | 305° |
| 2026-04-25 11:43 | 33.99875 | 70.35103 | 32440 ft | 427 kts | 297° |
| 2026-04-25 11:43 | 34.02656 | 70.28806 | 32471 ft | 421 kts | 296° |
| 2026-04-25 11:44 | 34.05402 | 70.22571 | 32498 ft | 422 kts | 296° |
| 2026-04-25 11:44 | 34.08171 | 70.16272 | 32490 ft | 422 kts | 297° |
| 2026-04-25 11:45 | 34.10915 | 70.10017 | 32499 ft | 424 kts | 296° |
| 2026-04-25 11:45 | 34.13644 | 70.03784 | 32513 ft | 420 kts | 296° |
| 2026-04-25 11:46 | 34.16378 | 69.97528 | 32518 ft | 422 kts | 296° |
| 2026-04-25 11:46 | 34.19108 | 69.91248 | 32506 ft | 419 kts | 297° |
| 2026-04-25 11:47 | 34.21805 | 69.84992 | 32482 ft | 421 kts | 296° |
| 2026-04-25 11:47 | 34.24491 | 69.78751 | 32464 ft | 417 kts | 296° |
| 2026-04-25 11:48 | 34.27190 | 69.72473 | 32463 ft | 420 kts | 297° |
| 2026-04-25 11:48 | 34.29881 | 69.66202 | 32473 ft | 417 kts | 297° |
| 2026-04-25 11:49 | 34.32566 | 69.59930 | 32483 ft | 418 kts | 297° |
| 2026-04-25 11:49 | 34.35242 | 69.53671 | 32476 ft | 418 kts | 297° |
| 2026-04-25 11:50 | 34.37912 | 69.47415 | 32477 ft | 416 kts | 297° |
| 2026-04-25 11:50 | 34.40579 | 69.41152 | 32467 ft | 420 kts | 297° |
| 2026-04-25 11:51 | 34.43191 | 69.35011 | 32442 ft | 417 kts | 297° |
| 2026-04-25 11:51 | 34.45863 | 69.28715 | 32431 ft | 417 kts | 296° |
| 2026-04-25 11:52 | 34.48478 | 69.22543 | 32429 ft | 416 kts | 297° |
| 2026-04-25 11:52 | 34.51762 | 69.16671 | 32420 ft | 419 kts | 310° |
| 2026-04-25 11:53 | 34.56216 | 69.12067 | 32417 ft | 424 kts | 323° |
| 2026-04-25 11:53 | 34.61424 | 69.08623 | 32431 ft | 431 kts | 327° |
| 2026-04-25 11:54 | 34.66688 | 69.05264 | 32426 ft | 425 kts | 327° |
| 2026-04-25 11:55 | 34.74594 | 69.00172 | 32452 ft | 425 kts | 327° |
| 2026-04-25 11:55 | 34.79826 | 68.96786 | 32453 ft | 427 kts | 328° |
| 2026-04-25 11:56 | 34.85069 | 68.93384 | 32478 ft | 426 kts | 327° |
| 2026-04-25 11:56 | 34.90340 | 68.89957 | 32478 ft | 430 kts | 327° |
| 2026-04-25 11:57 | 34.95634 | 68.86510 | 32480 ft | 427 kts | 327° |
| 2026-04-25 11:57 | 35.00896 | 68.83076 | 32467 ft | 429 kts | 327° |
| 2026-04-25 11:58 | 35.06128 | 68.79659 | 32483 ft | 426 kts | 327° |
| 2026-04-25 11:58 | 35.11382 | 68.76221 | 32512 ft | 427 kts | 328° |
| 2026-04-25 11:59 | 35.16642 | 68.72774 | 32505 ft | 428 kts | 328° |
| 2026-04-25 11:59 | 35.21863 | 68.69349 | 32521 ft | 427 kts | 327° |
| 2026-04-25 12:00 | 35.29737 | 68.64172 | 32513 ft | 425 kts | 328° |
| 2026-04-25 12:01 | 35.37579 | 68.59003 | 32488 ft | 427 kts | 328° |
| 2026-04-25 12:01 | 35.42846 | 68.55527 | 32478 ft | 426 kts | 328° |
| 2026-04-25 12:02 | 35.50652 | 68.50364 | 32460 ft | 426 kts | 327° |
| 2026-04-25 12:02 | 35.55909 | 68.46881 | 32433 ft | 427 kts | 327° |
| 2026-04-25 12:03 | 35.61157 | 68.43397 | 32446 ft | 428 kts | 327° |
| 2026-04-25 12:03 | 35.66354 | 68.39921 | 32439 ft | 427 kts | 327° |
| 2026-04-25 12:04 | 35.71605 | 68.36401 | 32456 ft | 424 kts | 327° |
| 2026-04-25 12:04 | 35.76801 | 68.32915 | 32470 ft | 427 kts | 327° |
| 2026-04-25 12:05 | 35.82021 | 68.29408 | 32485 ft | 425 kts | 327° |
| 2026-04-25 12:05 | 35.87241 | 68.25895 | 32465 ft | 427 kts | 327° |
| 2026-04-25 12:06 | 35.92487 | 68.22360 | 32445 ft | 427 kts | 327° |
| 2026-04-25 12:06 | 35.97692 | 68.18845 | 32400 ft | 431 kts | 327° |
| 2026-04-25 12:07 | 36.02947 | 68.15294 | 32372 ft | 428 kts | 327° |
| 2026-04-25 12:07 | 36.08196 | 68.11741 | 32364 ft | 428 kts | 327° |
| 2026-04-25 12:08 | 36.13412 | 68.08204 | 32363 ft | 428 kts | 327° |
| 2026-04-25 12:08 | 36.18636 | 68.04656 | 32321 ft | 430 kts | 327° |
| 2026-04-25 12:09 | 36.23920 | 68.01063 | 32276 ft | 430 kts | 327° |
| 2026-04-25 12:09 | 36.29138 | 67.97509 | 32265 ft | 428 kts | 327° |
| 2026-04-25 12:10 | 36.34376 | 67.93935 | 32238 ft | 430 kts | 327° |
| 2026-04-25 12:10 | 36.39603 | 67.90363 | 32242 ft | 430 kts | 327° |
| 2026-04-25 12:11 | 36.44878 | 67.86753 | 32183 ft | 431 kts | 327° |
| 2026-04-25 12:11 | 36.50132 | 67.83152 | 32207 ft | 432 kts | 327° |
| 2026-04-25 12:12 | 36.54533 | 67.80132 | 32182 ft | 430 kts | 327° |
| 2026-04-25 12:12 | 36.60672 | 67.75912 | 32146 ft | 431 kts | 327° |
| 2026-04-25 12:13 | 36.65940 | 67.72283 | 32116 ft | 432 kts | 327° |
| 2026-04-25 12:13 | 36.71228 | 67.68636 | 32073 ft | 431 kts | 327° |
| 2026-04-25 12:14 | 36.76483 | 67.65021 | 32038 ft | 434 kts | 328° |
| 2026-04-25 12:14 | 36.81773 | 67.61384 | 32036 ft | 432 kts | 327° |
| 2026-04-25 12:15 | 36.87062 | 67.57740 | 32018 ft | 432 kts | 327° |
| 2026-04-25 12:15 | 36.92315 | 67.54115 | 32022 ft | 435 kts | 327° |
| 2026-04-25 12:16 | 36.97609 | 67.50457 | 32009 ft | 434 kts | 327° |
| 2026-04-25 12:16 | 37.02904 | 67.46790 | 31996 ft | 433 kts | 327° |
| 2026-04-25 12:17 | 37.08185 | 67.43128 | 31997 ft | 434 kts | 328° |
| 2026-04-25 12:17 | 37.13406 | 67.39502 | 32011 ft | 433 kts | 328° |
| 2026-04-25 12:18 | 37.18687 | 67.35828 | 32002 ft | 436 kts | 327° |
| 2026-04-25 12:18 | 37.23899 | 67.32065 | 32009 ft | 433 kts | 325° |
| 2026-04-25 12:19 | 37.31590 | 67.26144 | 32022 ft | 432 kts | 325° |
| 2026-04-25 12:20 | 37.36727 | 67.22196 | 32019 ft | 433 kts | 325° |
| 2026-04-25 12:20 | 37.41878 | 67.18240 | 32029 ft | 432 kts | 325° |
| 2026-04-25 12:21 | 37.47049 | 67.14265 | 32031 ft | 433 kts | 325° |
| 2026-04-25 12:21 | 37.52187 | 67.10309 | 32033 ft | 433 kts | 325° |
| 2026-04-25 12:22 | 37.57315 | 67.06356 | 32047 ft | 433 kts | 325° |
| 2026-04-25 12:22 | 37.62500 | 67.02353 | 32069 ft | 434 kts | 325° |
| 2026-04-25 12:23 | 37.67645 | 66.98375 | 32084 ft | 433 kts | 325° |
| 2026-04-25 12:23 | 37.72775 | 66.94402 | 32104 ft | 432 kts | 325° |
| 2026-04-25 12:24 | 37.77900 | 66.90426 | 32120 ft | 433 kts | 325° |
| 2026-04-25 12:24 | 37.83042 | 66.86430 | 32144 ft | 432 kts | 325° |
| 2026-04-25 12:25 | 37.88139 | 66.82463 | 32181 ft | 431 kts | 325° |
| 2026-04-25 12:25 | 37.93300 | 66.78438 | 32219 ft | 434 kts | 325° |
| 2026-04-25 12:26 | 37.98429 | 66.74433 | 32245 ft | 432 kts | 325° |
| 2026-04-25 12:26 | 38.03548 | 66.70419 | 32253 ft | 430 kts | 324° |
| 2026-04-25 12:27 | 38.08660 | 66.66365 | 32235 ft | 433 kts | 325° |
| 2026-04-25 12:27 | 38.13749 | 66.62325 | 32230 ft | 433 kts | 324° |
| 2026-04-25 12:28 | 38.18876 | 66.58249 | 32211 ft | 433 kts | 324° |
| 2026-04-25 12:28 | 38.23962 | 66.54200 | 32193 ft | 432 kts | 325° |
| 2026-04-25 12:29 | 38.29062 | 66.50131 | 32174 ft | 434 kts | 325° |
| 2026-04-25 12:29 | 38.34193 | 66.46034 | 32145 ft | 433 kts | 325° |
| 2026-04-25 12:30 | 38.39297 | 66.41949 | 32137 ft | 433 kts | 325° |
| 2026-04-25 12:30 | 38.44421 | 66.37843 | 32124 ft | 432 kts | 325° |
| 2026-04-25 12:31 | 38.49517 | 66.33750 | 32124 ft | 434 kts | 324° |
| 2026-04-25 12:31 | 38.54617 | 66.29649 | 32105 ft | 432 kts | 324° |
| 2026-04-25 12:32 | 38.59709 | 66.25546 | 32081 ft | 435 kts | 324° |
| 2026-04-25 12:32 | 38.64848 | 66.21439 | 32069 ft | 433 kts | 325° |
| 2026-04-25 12:33 | 38.69962 | 66.17410 | 32059 ft | 434 kts | 325° |
| 2026-04-25 12:33 | 38.75194 | 66.13275 | 32109 ft | 449 kts | 325° |
| 2026-04-25 12:33 | 38.77869 | 66.11159 | 32456 ft | 449 kts | 325° |
| 2026-04-25 12:34 | 38.80526 | 66.09056 | 33125 ft | 443 kts | 325° |
| 2026-04-25 12:34 | 38.83117 | 66.07004 | 33804 ft | 437 kts | 325° |
| 2026-04-25 12:34 | 38.85682 | 66.04967 | 34034 ft | 439 kts | 324° |
| 2026-04-25 12:35 | 38.90892 | 66.00826 | 34041 ft | 437 kts | 324° |
| 2026-04-25 12:35 | 38.96036 | 65.96730 | 34031 ft | 437 kts | 324° |
| 2026-04-25 12:36 | 39.01214 | 65.92600 | 34030 ft | 439 kts | 324° |
| 2026-04-25 12:36 | 39.06391 | 65.88463 | 34023 ft | 438 kts | 324° |
| 2026-04-25 12:37 | 39.11572 | 65.84315 | 34028 ft | 439 kts | 324° |
| 2026-04-25 12:37 | 39.16726 | 65.80183 | 34027 ft | 439 kts | 324° |
| 2026-04-25 12:38 | 39.21896 | 65.76030 | 34025 ft | 438 kts | 324° |
| 2026-04-25 12:38 | 39.27092 | 65.71849 | 34025 ft | 438 kts | 324° |
| 2026-04-25 12:39 | 39.32246 | 65.67694 | 34017 ft | 439 kts | 325° |
| 2026-04-25 12:39 | 39.37432 | 65.63506 | 34011 ft | 439 kts | 325° |
| 2026-04-25 12:40 | 39.42597 | 65.59328 | 34015 ft | 439 kts | 324° |
| 2026-04-25 12:40 | 39.47790 | 65.55119 | 34006 ft | 439 kts | 324° |
| 2026-04-25 12:41 | 39.52960 | 65.50923 | 34001 ft | 438 kts | 325° |
| 2026-04-25 12:41 | 39.58143 | 65.46707 | 34005 ft | 441 kts | 325° |
| 2026-04-25 12:42 | 39.63327 | 65.42484 | 33998 ft | 440 kts | 324° |
| 2026-04-25 12:42 | 39.68501 | 65.38260 | 34003 ft | 442 kts | 324° |
| 2026-04-25 12:43 | 39.73707 | 65.34003 | 34007 ft | 442 kts | 324° |
| 2026-04-25 12:43 | 39.81473 | 65.27640 | 34005 ft | 439 kts | 324° |
| 2026-04-25 12:44 | 39.86653 | 65.23383 | 34015 ft | 441 kts | 324° |
| 2026-04-25 12:45 | 39.94439 | 65.16975 | 34011 ft | 442 kts | 324° |
| 2026-04-25 12:45 | 40.02250 | 65.10526 | 34009 ft | 444 kts | 324° |
| 2026-04-25 12:46 | 40.07480 | 65.06199 | 34002 ft | 442 kts | 324° |
| 2026-04-25 12:46 | 40.12656 | 65.01908 | 34002 ft | 441 kts | 324° |
| 2026-04-25 12:47 | 40.17867 | 64.97581 | 33993 ft | 444 kts | 324° |
| 2026-04-25 12:47 | 40.23047 | 64.93272 | 33985 ft | 443 kts | 324° |
| 2026-04-25 12:48 | 40.28244 | 64.88940 | 33984 ft | 443 kts | 324° |
| 2026-04-25 12:48 | 40.33430 | 64.84609 | 33982 ft | 442 kts | 324° |
| 2026-04-25 12:49 | 40.38634 | 64.80256 | 33982 ft | 443 kts | 324° |
| 2026-04-25 12:49 | 40.43808 | 64.75919 | 33979 ft | 444 kts | 324° |
| 2026-04-25 12:50 | 40.49007 | 64.71553 | 33979 ft | 444 kts | 324° |
| 2026-04-25 12:50 | 40.54211 | 64.67175 | 33974 ft | 444 kts | 324° |
| 2026-04-25 12:51 | 40.59372 | 64.62826 | 33968 ft | 443 kts | 324° |
| 2026-04-25 12:51 | 40.64566 | 64.58439 | 33968 ft | 445 kts | 324° |
| 2026-04-25 12:52 | 40.69747 | 64.54057 | 33969 ft | 444 kts | 324° |
| 2026-04-25 12:52 | 40.74946 | 64.49650 | 33967 ft | 442 kts | 323° |
| 2026-04-25 12:53 | 40.80130 | 64.45248 | 33963 ft | 442 kts | 323° |
| 2026-04-25 12:53 | 40.85282 | 64.40865 | 33962 ft | 442 kts | 323° |
| 2026-04-25 12:54 | 40.90470 | 64.36442 | 33961 ft | 442 kts | 323° |
| 2026-04-25 12:54 | 40.95631 | 64.32034 | 33967 ft | 443 kts | 323° |
| 2026-04-25 12:55 | 40.99943 | 64.28346 | 33971 ft | 441 kts | 323° |
| 2026-04-25 12:55 | 41.05964 | 64.23185 | 33978 ft | 441 kts | 323° |
| 2026-04-25 12:56 | 41.11106 | 64.18768 | 33971 ft | 441 kts | 322° |
| 2026-04-25 12:56 | 41.16256 | 64.14336 | 33972 ft | 442 kts | 322° |
| 2026-04-25 12:57 | 41.21420 | 64.09885 | 33980 ft | 442 kts | 322° |
| 2026-04-25 12:57 | 41.26562 | 64.05443 | 33980 ft | 442 kts | 322° |
| 2026-04-25 12:58 | 41.31710 | 64.00988 | 33984 ft | 443 kts | 322° |
| 2026-04-25 12:58 | 41.36856 | 63.96526 | 33983 ft | 441 kts | 322° |
| 2026-04-25 12:59 | 41.42022 | 63.92039 | 33981 ft | 444 kts | 322° |
| 2026-04-25 12:59 | 41.47196 | 63.87542 | 33969 ft | 443 kts | 322° |
| 2026-04-25 13:00 | 41.51508 | 63.83787 | 33958 ft | 443 kts | 322° |
| 2026-04-25 13:00 | 41.57489 | 63.78567 | 33953 ft | 444 kts | 322° |
| 2026-04-25 13:01 | 41.62646 | 63.74059 | 33949 ft | 443 kts | 322° |
| 2026-04-25 13:01 | 41.67831 | 63.69515 | 33944 ft | 445 kts | 322° |
| 2026-04-25 13:02 | 41.72963 | 63.65011 | 33934 ft | 443 kts | 322° |
| 2026-04-25 13:02 | 41.78117 | 63.60479 | 33932 ft | 441 kts | 322° |
| 2026-04-25 13:03 | 41.83278 | 63.55929 | 33929 ft | 443 kts | 322° |
| 2026-04-25 13:03 | 41.88427 | 63.51383 | 33921 ft | 443 kts | 322° |
| 2026-04-25 13:04 | 41.93557 | 63.46844 | 33924 ft | 445 kts | 322° |
| 2026-04-25 13:04 | 41.98736 | 63.42253 | 33912 ft | 444 kts | 322° |
| 2026-04-25 13:05 | 42.03867 | 63.37695 | 33915 ft | 445 kts | 321° |
| 2026-04-25 13:05 | 42.09047 | 63.33086 | 33933 ft | 443 kts | 321° |
| 2026-04-25 13:06 | 42.14167 | 63.28519 | 33934 ft | 443 kts | 321° |
| 2026-04-25 13:06 | 42.19305 | 63.23929 | 33936 ft | 443 kts | 321° |
| 2026-04-25 13:07 | 42.24442 | 63.19329 | 33935 ft | 443 kts | 320° |
| 2026-04-25 13:07 | 42.29565 | 63.14735 | 33932 ft | 442 kts | 320° |
| 2026-04-25 13:08 | 42.34725 | 63.10095 | 33924 ft | 444 kts | 320° |
| 2026-04-25 13:08 | 42.39845 | 63.05484 | 33917 ft | 443 kts | 320° |
| 2026-04-25 13:09 | 42.44963 | 63.00866 | 33929 ft | 442 kts | 320° |
| 2026-04-25 13:09 | 42.50091 | 62.96228 | 33925 ft | 442 kts | 320° |
| 2026-04-25 13:10 | 42.55164 | 62.91631 | 33928 ft | 445 kts | 320° |
| 2026-04-25 13:10 | 42.60314 | 62.86956 | 33910 ft | 441 kts | 320° |
| 2026-04-25 13:11 | 42.65438 | 62.82293 | 33910 ft | 444 kts | 320° |
| 2026-04-25 13:11 | 42.70545 | 62.77639 | 33909 ft | 442 kts | 320° |
| 2026-04-25 13:12 | 42.75661 | 62.72965 | 33899 ft | 444 kts | 320° |
| 2026-04-25 13:12 | 42.79926 | 62.69061 | 33905 ft | 443 kts | 320° |
| 2026-04-25 13:13 | 42.85872 | 62.63609 | 33905 ft | 443 kts | 320° |
| 2026-04-25 13:13 | 42.91010 | 62.58886 | 33907 ft | 445 kts | 320° |
| 2026-04-25 13:14 | 42.96121 | 62.54181 | 33900 ft | 441 kts | 320° |
| 2026-04-25 13:14 | 43.01207 | 62.49487 | 33900 ft | 443 kts | 320° |
| 2026-04-25 13:15 | 43.06304 | 62.44774 | 33901 ft | 443 kts | 320° |
| 2026-04-25 13:15 | 43.11439 | 62.40017 | 33898 ft | 442 kts | 319° |
| 2026-04-25 13:16 | 43.16537 | 62.35283 | 33896 ft | 443 kts | 319° |
| 2026-04-25 13:16 | 43.21623 | 62.30550 | 33903 ft | 442 kts | 319° |
| 2026-04-25 13:17 | 43.26742 | 62.25778 | 33898 ft | 445 kts | 319° |
| 2026-04-25 13:17 | 43.31837 | 62.21019 | 33891 ft | 445 kts | 318° |
| 2026-04-25 13:18 | 43.36989 | 62.16195 | 33887 ft | 444 kts | 318° |
| 2026-04-25 13:18 | 43.42080 | 62.11419 | 33877 ft | 445 kts | 318° |
| 2026-04-25 13:19 | 43.47345 | 62.06905 | 33880 ft | 454 kts | 326° |
| 2026-04-25 13:19 | 43.52123 | 62.03815 | 33886 ft | 456 kts | 327° |
| 2026-04-25 13:20 | 43.58851 | 61.99491 | 33879 ft | 455 kts | 327° |
| 2026-04-25 13:20 | 43.64588 | 61.95786 | 33881 ft | 458 kts | 327° |
| 2026-04-25 13:21 | 43.70349 | 61.92054 | 33880 ft | 457 kts | 327° |
| 2026-04-25 13:21 | 43.76078 | 61.88332 | 33884 ft | 458 kts | 327° |
| 2026-04-25 13:22 | 43.81847 | 61.84576 | 33883 ft | 458 kts | 326° |
| 2026-04-25 13:23 | 43.90510 | 61.78917 | 33879 ft | 459 kts | 327° |
| 2026-04-25 13:23 | 43.96301 | 61.75122 | 33880 ft | 462 kts | 327° |
| 2026-04-25 13:24 | 44.02119 | 61.71306 | 33881 ft | 459 kts | 326° |
| 2026-04-25 13:24 | 44.07877 | 61.67518 | 33884 ft | 461 kts | 326° |
| 2026-04-25 13:25 | 44.13660 | 61.63706 | 33880 ft | 461 kts | 326° |
| 2026-04-25 13:25 | 44.19458 | 61.59877 | 33879 ft | 462 kts | 326° |
| 2026-04-25 13:26 | 44.25271 | 61.56038 | 33880 ft | 462 kts | 326° |
| 2026-04-25 13:26 | 44.31051 | 61.52210 | 33880 ft | 462 kts | 326° |
| 2026-04-25 13:27 | 44.36888 | 61.48335 | 33877 ft | 462 kts | 326° |
| 2026-04-25 13:27 | 44.42683 | 61.44480 | 33878 ft | 461 kts | 326° |
| 2026-04-25 13:28 | 44.48473 | 61.40620 | 33879 ft | 463 kts | 325° |
| 2026-04-25 13:28 | 44.54285 | 61.36736 | 33873 ft | 462 kts | 325° |
| 2026-04-25 13:29 | 44.60090 | 61.32848 | 33892 ft | 464 kts | 324° |
| 2026-04-25 13:29 | 44.65908 | 61.28943 | 33888 ft | 462 kts | 324° |
| 2026-04-25 13:30 | 44.74624 | 61.23076 | 33893 ft | 464 kts | 324° |
| 2026-04-25 13:31 | 44.83355 | 61.17180 | 33894 ft | 465 kts | 324° |
| 2026-04-25 13:31 | 44.89193 | 61.13227 | 33894 ft | 464 kts | 324° |
| 2026-04-25 13:32 | 44.95028 | 61.09263 | 33897 ft | 469 kts | 324° |
| 2026-04-25 13:32 | 45.00897 | 61.05272 | 33898 ft | 468 kts | 324° |
| 2026-04-25 13:33 | 45.06733 | 61.01295 | 33894 ft | 466 kts | 324° |
| 2026-04-25 13:33 | 45.12598 | 60.97287 | 33884 ft | 464 kts | 324° |
| 2026-04-25 13:34 | 45.18428 | 60.93290 | 33884 ft | 469 kts | 324° |
| 2026-04-25 13:34 | 45.24278 | 60.89275 | 33883 ft | 466 kts | 324° |
| 2026-04-25 13:35 | 45.30100 | 60.85269 | 33889 ft | 467 kts | 324° |
| 2026-04-25 13:35 | 45.35984 | 60.81210 | 33893 ft | 467 kts | 323° |
| 2026-04-25 13:36 | 45.41705 | 60.76975 | 33894 ft | 460 kts | 316° |
| 2026-04-25 13:36 | 45.46576 | 60.71286 | 33891 ft | 448 kts | 308° |
| 2026-04-25 13:37 | 45.51180 | 60.65416 | 33890 ft | 443 kts | 308° |
| 2026-04-25 13:37 | 45.55806 | 60.59483 | 33890 ft | 448 kts | 308° |
| 2026-04-25 13:38 | 45.60395 | 60.53587 | 33890 ft | 445 kts | 308° |
| 2026-04-25 13:38 | 45.64986 | 60.47672 | 33888 ft | 447 kts | 308° |
| 2026-04-25 13:39 | 45.69640 | 60.41662 | 33883 ft | 448 kts | 308° |
| 2026-04-25 13:39 | 45.74218 | 60.35734 | 33881 ft | 449 kts | 307° |
| 2026-04-25 13:40 | 45.78857 | 60.29713 | 33896 ft | 448 kts | 307° |
| 2026-04-25 13:40 | 45.83439 | 60.23755 | 33897 ft | 446 kts | 307° |
| 2026-04-25 13:41 | 45.88047 | 60.17743 | 33895 ft | 449 kts | 306° |
| 2026-04-25 13:41 | 45.92643 | 60.11736 | 33901 ft | 451 kts | 306° |
| 2026-04-25 13:42 | 45.97294 | 60.05643 | 33890 ft | 450 kts | 306° |
| 2026-04-25 13:42 | 46.01887 | 59.99610 | 33899 ft | 454 kts | 306° |
| 2026-04-25 13:43 | 46.06514 | 59.93528 | 33899 ft | 444 kts | 306° |
| 2026-04-25 13:43 | 46.11085 | 59.87492 | 33891 ft | 450 kts | 306° |
| 2026-04-25 13:44 | 46.15679 | 59.81415 | 33897 ft | 449 kts | 306° |
| 2026-04-25 13:44 | 46.20239 | 59.75375 | 33908 ft | 447 kts | 306° |
| 2026-04-25 13:45 | 46.24806 | 59.69191 | 33906 ft | 445 kts | 304° |
| 2026-04-25 13:45 | 46.29163 | 59.62917 | 33909 ft | 444 kts | 303° |
| 2026-04-25 13:46 | 46.33537 | 59.56616 | 33910 ft | 441 kts | 303° |
| 2026-04-25 13:46 | 46.37902 | 59.50320 | 33911 ft | 445 kts | 304° |
| 2026-04-25 13:47 | 46.42282 | 59.44002 | 33913 ft | 444 kts | 303° |
| 2026-04-25 13:47 | 46.46623 | 59.37727 | 33908 ft | 443 kts | 303° |
| 2026-04-25 13:48 | 46.51004 | 59.31380 | 33931 ft | 442 kts | 303° |
| 2026-04-25 13:48 | 46.55326 | 59.25104 | 33932 ft | 443 kts | 303° |
| 2026-04-25 13:49 | 46.59666 | 59.18792 | 33934 ft | 440 kts | 302° |
| 2026-04-25 13:49 | 46.63973 | 59.12503 | 33939 ft | 442 kts | 302° |
| 2026-04-25 13:50 | 46.68286 | 59.06197 | 33945 ft | 443 kts | 303° |
| 2026-04-25 13:50 | 46.72607 | 58.99867 | 33947 ft | 441 kts | 302° |
| 2026-04-25 13:51 | 46.76931 | 58.93512 | 33944 ft | 441 kts | 302° |
| 2026-04-25 13:51 | 46.81227 | 58.87180 | 33948 ft | 445 kts | 302° |
| 2026-04-25 13:52 | 46.85537 | 58.80823 | 33949 ft | 441 kts | 302° |
| 2026-04-25 13:52 | 46.89893 | 58.74372 | 33957 ft | 445 kts | 302° |
| 2026-04-25 13:53 | 46.94199 | 58.67990 | 33953 ft | 440 kts | 302° |
| 2026-04-25 13:53 | 46.98499 | 58.61588 | 33965 ft | 445 kts | 302° |
| 2026-04-25 13:54 | 47.02839 | 58.55119 | 33958 ft | 444 kts | 302° |
| 2026-04-25 13:54 | 47.07169 | 58.48643 | 33948 ft | 449 kts | 302° |
| 2026-04-25 13:55 | 47.11546 | 58.42088 | 33941 ft | 450 kts | 302° |
| 2026-04-25 13:55 | 47.15869 | 58.35599 | 33954 ft | 448 kts | 302° |
| 2026-04-25 13:56 | 47.20202 | 58.29077 | 33968 ft | 443 kts | 302° |
| 2026-04-25 13:56 | 47.24526 | 58.22543 | 33961 ft | 449 kts | 302° |
| 2026-04-25 13:57 | 47.28849 | 58.16006 | 33968 ft | 446 kts | 302° |
| 2026-04-25 13:57 | 47.33183 | 58.09430 | 33958 ft | 445 kts | 302° |
| 2026-04-25 13:58 | 47.37489 | 58.02880 | 33975 ft | 447 kts | 302° |
| 2026-04-25 13:58 | 47.41814 | 57.96286 | 33971 ft | 449 kts | 302° |
| 2026-04-25 13:59 | 47.46158 | 57.89644 | 33965 ft | 451 kts | 302° |
| 2026-04-25 13:59 | 47.50494 | 57.83004 | 33959 ft | 447 kts | 302° |
| 2026-04-25 14:00 | 47.54100 | 57.77457 | 33978 ft | 455 kts | 302° |
| 2026-04-25 14:00 | 47.59225 | 57.69566 | 33967 ft | 457 kts | 303° |
| 2026-04-25 14:01 | 47.63600 | 57.62817 | 33948 ft | 454 kts | 303° |
| 2026-04-25 14:01 | 47.68000 | 57.56000 | 33946 ft | 457 kts | 303° |
| 2026-04-25 14:02 | 47.72402 | 57.49166 | 33958 ft | 459 kts | 303° |
| 2026-04-25 14:02 | 47.76761 | 57.42389 | 33955 ft | 456 kts | 303° |
| 2026-04-25 14:03 | 47.81168 | 57.35508 | 33943 ft | 459 kts | 303° |
| 2026-04-25 14:03 | 47.85543 | 57.28664 | 33964 ft | 459 kts | 303° |
| 2026-04-25 14:04 | 47.89910 | 57.21816 | 33956 ft | 458 kts | 303° |
| 2026-04-25 14:04 | 47.94340 | 57.14841 | 33978 ft | 465 kts | 303° |
| 2026-04-25 14:05 | 47.98747 | 57.07898 | 33959 ft | 462 kts | 303° |
| 2026-04-25 14:05 | 48.03171 | 57.00905 | 33974 ft | 460 kts | 303° |
| 2026-04-25 14:06 | 48.07565 | 56.93937 | 33952 ft | 464 kts | 303° |
| 2026-04-25 14:06 | 48.11950 | 56.86964 | 33959 ft | 466 kts | 303° |
| 2026-04-25 14:07 | 48.16317 | 56.80011 | 33943 ft | 460 kts | 303° |
| 2026-04-25 14:07 | 48.20725 | 56.72960 | 33941 ft | 466 kts | 303° |
| 2026-04-25 14:08 | 48.25157 | 56.65864 | 33944 ft | 461 kts | 303° |
| 2026-04-25 14:08 | 48.29565 | 56.58773 | 33930 ft | 468 kts | 304° |
| 2026-04-25 14:09 | 48.33984 | 56.51660 | 33930 ft | 463 kts | 304° |
| 2026-04-25 14:09 | 48.38372 | 56.44567 | 33936 ft | 467 kts | 304° |
| 2026-04-25 14:10 | 48.42791 | 56.37411 | 33943 ft | 466 kts | 304° |
| 2026-04-25 14:10 | 48.47160 | 56.30313 | 33934 ft | 467 kts | 304° |
| 2026-04-25 14:11 | 48.51588 | 56.23101 | 33946 ft | 466 kts | 304° |
| 2026-04-25 14:11 | 48.55982 | 56.15925 | 33951 ft | 466 kts | 304° |
| 2026-04-25 14:12 | 48.60373 | 56.08733 | 33948 ft | 465 kts | 304° |
| 2026-04-25 14:12 | 48.64754 | 56.01537 | 33952 ft | 467 kts | 304° |
| 2026-04-25 14:13 | 48.69136 | 55.94322 | 33951 ft | 464 kts | 304° |
| 2026-04-25 14:13 | 48.73512 | 55.87094 | 33941 ft | 464 kts | 304° |
| 2026-04-25 14:14 | 48.77851 | 55.79903 | 33942 ft | 466 kts | 304° |
| 2026-04-25 14:14 | 48.82212 | 55.72656 | 33946 ft | 468 kts | 305° |
| 2026-04-25 14:15 | 48.86595 | 55.65358 | 33941 ft | 467 kts | 305° |
| 2026-04-25 14:15 | 48.90974 | 55.58041 | 33942 ft | 467 kts | 305° |
| 2026-04-25 14:16 | 48.95344 | 55.50722 | 33941 ft | 469 kts | 305° |
| 2026-04-25 14:16 | 48.99714 | 55.43381 | 33935 ft | 468 kts | 305° |
| 2026-04-25 14:17 | 49.04094 | 55.36002 | 33944 ft | 469 kts | 305° |
| 2026-04-25 14:17 | 49.08445 | 55.28652 | 33945 ft | 467 kts | 305° |
| 2026-04-25 14:18 | 49.12745 | 55.21366 | 33928 ft | 467 kts | 305° |
| 2026-04-25 14:18 | 49.17075 | 55.14010 | 33937 ft | 468 kts | 305° |
| 2026-04-25 14:19 | 49.21440 | 55.06572 | 33935 ft | 468 kts | 305° |
| 2026-04-25 14:19 | 49.25753 | 54.99202 | 33934 ft | 468 kts | 305° |
| 2026-04-25 14:20 | 49.30121 | 54.91717 | 33929 ft | 469 kts | 305° |
| 2026-04-25 14:20 | 49.34464 | 54.84253 | 33925 ft | 470 kts | 305° |
| 2026-04-25 14:21 | 49.38808 | 54.76768 | 33924 ft | 470 kts | 305° |
| 2026-04-25 14:21 | 49.43138 | 54.69283 | 33927 ft | 469 kts | 306° |
| 2026-04-25 14:22 | 49.47477 | 54.61762 | 33918 ft | 470 kts | 306° |
| 2026-04-25 14:22 | 49.51796 | 54.54254 | 33925 ft | 468 kts | 306° |
| 2026-04-25 14:23 | 49.56135 | 54.46688 | 33919 ft | 470 kts | 306° |
| 2026-04-25 14:23 | 49.60456 | 54.39134 | 33915 ft | 469 kts | 306° |
| 2026-04-25 14:24 | 49.64770 | 54.31569 | 33922 ft | 468 kts | 305° |
| 2026-04-25 14:24 | 49.69043 | 54.24051 | 33914 ft | 470 kts | 305° |
| 2026-04-25 14:25 | 49.73341 | 54.16472 | 33916 ft | 469 kts | 306° |
| 2026-04-25 14:25 | 49.77629 | 54.08885 | 33918 ft | 470 kts | 306° |
| 2026-04-25 14:26 | 49.81923 | 54.01268 | 33912 ft | 469 kts | 306° |
| 2026-04-25 14:26 | 49.86198 | 53.93661 | 33917 ft | 467 kts | 306° |
| 2026-04-25 14:27 | 49.90476 | 53.86028 | 33913 ft | 468 kts | 306° |
| 2026-04-25 14:27 | 49.94730 | 53.78442 | 33916 ft | 466 kts | 306° |
| 2026-04-25 14:28 | 49.98985 | 53.70829 | 33905 ft | 467 kts | 306° |
| 2026-04-25 14:28 | 50.03245 | 53.63185 | 33905 ft | 468 kts | 306° |
| 2026-04-25 14:29 | 50.07475 | 53.55574 | 33908 ft | 466 kts | 306° |
| 2026-04-25 14:29 | 50.11706 | 53.47935 | 33895 ft | 466 kts | 307° |
| 2026-04-25 14:30 | 50.15905 | 53.40335 | 33895 ft | 465 kts | 307° |
| 2026-04-25 14:30 | 50.22146 | 53.28995 | 33899 ft | 464 kts | 306° |
| 2026-04-25 14:31 | 50.26347 | 53.21334 | 33899 ft | 463 kts | 306° |
| 2026-04-25 14:31 | 50.30521 | 53.13699 | 33898 ft | 463 kts | 306° |
| 2026-04-25 14:32 | 50.34718 | 53.05998 | 33897 ft | 462 kts | 307° |
| 2026-04-25 14:32 | 50.38873 | 52.98354 | 33898 ft | 463 kts | 307° |
| 2026-04-25 14:33 | 50.43033 | 52.90678 | 33896 ft | 462 kts | 307° |
| 2026-04-25 14:33 | 50.47166 | 52.83027 | 33896 ft | 461 kts | 307° |
| 2026-04-25 14:34 | 50.51323 | 52.75309 | 33897 ft | 461 kts | 307° |
| 2026-04-25 14:34 | 50.55435 | 52.67652 | 33894 ft | 459 kts | 307° |
| 2026-04-25 14:35 | 50.59561 | 52.59948 | 33891 ft | 459 kts | 307° |
| 2026-04-25 14:35 | 50.63652 | 52.52285 | 33890 ft | 459 kts | 307° |
| 2026-04-25 14:36 | 50.67750 | 52.44586 | 33882 ft | 459 kts | 307° |
| 2026-04-25 14:36 | 50.71858 | 52.36846 | 33884 ft | 459 kts | 308° |
| 2026-04-25 14:37 | 50.75936 | 52.29137 | 33880 ft | 459 kts | 307° |
| 2026-04-25 14:37 | 50.80017 | 52.21402 | 33879 ft | 458 kts | 307° |
| 2026-04-25 14:38 | 50.84089 | 52.13659 | 33887 ft | 457 kts | 307° |
| 2026-04-25 14:38 | 50.88135 | 52.05944 | 33889 ft | 457 kts | 307° |
| 2026-04-25 14:39 | 50.92196 | 51.98175 | 33890 ft | 458 kts | 308° |
| 2026-04-25 14:39 | 50.96250 | 51.90398 | 33889 ft | 457 kts | 308° |
| 2026-04-25 14:40 | 51.00281 | 51.82642 | 33884 ft | 456 kts | 308° |
| 2026-04-25 14:40 | 51.04292 | 51.74900 | 33887 ft | 454 kts | 308° |
| 2026-04-25 14:41 | 51.08299 | 51.67144 | 33873 ft | 452 kts | 308° |
| 2026-04-25 14:41 | 51.12269 | 51.59434 | 33875 ft | 451 kts | 308° |
| 2026-04-25 14:42 | 51.15327 | 51.52828 | 33881 ft | 450 kts | 300° |
| 2026-04-25 14:42 | 51.18906 | 51.42729 | 33868 ft | 449 kts | 299° |
| 2026-04-25 14:43 | 51.21949 | 51.34007 | 33877 ft | 448 kts | 298° |
| 2026-04-25 14:43 | 51.24922 | 51.25440 | 33878 ft | 449 kts | 298° |
| 2026-04-25 14:44 | 51.27924 | 51.16752 | 33875 ft | 449 kts | 298° |
| 2026-04-25 14:44 | 51.30926 | 51.08029 | 33881 ft | 447 kts | 298° |
| 2026-04-25 14:45 | 51.33921 | 50.99291 | 33866 ft | 446 kts | 299° |
| 2026-04-25 14:45 | 51.36879 | 50.90634 | 33875 ft | 447 kts | 299° |
| 2026-04-25 14:46 | 51.39842 | 50.81929 | 33869 ft | 446 kts | 299° |
| 2026-04-25 14:46 | 51.42812 | 50.73173 | 33849 ft | 445 kts | 299° |
| 2026-04-25 14:47 | 51.45257 | 50.65943 | 33864 ft | 445 kts | 299° |
| 2026-04-25 14:47 | 51.48669 | 50.55815 | 33862 ft | 443 kts | 299° |
| 2026-04-25 14:48 | 51.51376 | 50.46885 | 33858 ft | 444 kts | 296° |
| 2026-04-25 14:48 | 51.53926 | 50.37909 | 33853 ft | 443 kts | 296° |
| 2026-04-25 14:49 | 51.56465 | 50.28999 | 33849 ft | 442 kts | 296° |
| 2026-04-25 14:49 | 51.59000 | 50.20103 | 33857 ft | 442 kts | 296° |
| 2026-04-25 14:50 | 51.61560 | 50.11105 | 33863 ft | 442 kts | 296° |
| 2026-04-25 14:50 | 51.64105 | 50.02132 | 33840 ft | 439 kts | 296° |
| 2026-04-25 14:51 | 51.66620 | 49.93235 | 33839 ft | 440 kts | 296° |
| 2026-04-25 14:51 | 51.69134 | 49.84310 | 33845 ft | 436 kts | 296° |
| 2026-04-25 14:52 | 51.71630 | 49.75419 | 33834 ft | 438 kts | 296° |
| 2026-04-25 14:52 | 51.73706 | 49.67998 | 33852 ft | 437 kts | 296° |
| 2026-04-25 14:53 | 51.76609 | 49.57581 | 33824 ft | 436 kts | 296° |
| 2026-04-25 14:53 | 51.79078 | 49.48682 | 33823 ft | 433 kts | 297° |
| 2026-04-25 14:54 | 51.81535 | 49.39795 | 33819 ft | 434 kts | 297° |
| 2026-04-25 14:54 | 51.83965 | 49.30972 | 33845 ft | 433 kts | 296° |
| 2026-04-25 14:55 | 51.86385 | 49.22154 | 33854 ft | 434 kts | 296° |
| 2026-04-25 14:55 | 51.88801 | 49.13314 | 33833 ft | 432 kts | 296° |
| 2026-04-25 14:56 | 51.91221 | 49.04428 | 33831 ft | 431 kts | 296° |
| 2026-04-25 14:56 | 51.93626 | 48.95560 | 33836 ft | 430 kts | 296° |
| 2026-04-25 14:57 | 51.96003 | 48.86760 | 33815 ft | 427 kts | 296° |
| 2026-04-25 14:57 | 51.98393 | 48.77879 | 33817 ft | 430 kts | 296° |
| 2026-04-25 14:58 | 52.00754 | 48.69052 | 33807 ft | 429 kts | 296° |
| 2026-04-25 14:58 | 52.03124 | 48.60156 | 33826 ft | 429 kts | 296° |
| 2026-04-25 14:59 | 52.05483 | 48.51267 | 33816 ft | 428 kts | 296° |
| 2026-04-25 14:59 | 52.07833 | 48.42379 | 33823 ft | 427 kts | 296° |
| 2026-04-25 15:00 | 52.10148 | 48.33590 | 33825 ft | 428 kts | 295° |
| 2026-04-25 15:00 | 52.12367 | 48.25131 | 33832 ft | 426 kts | 295° |
| 2026-04-25 15:01 | 52.14643 | 48.16499 | 33828 ft | 426 kts | 296° |
| 2026-04-25 15:01 | 52.17054 | 48.07758 | 33824 ft | 428 kts | 297° |
| 2026-04-25 15:02 | 52.19464 | 47.98977 | 33826 ft | 427 kts | 296° |
| 2026-04-25 15:02 | 52.21857 | 47.90212 | 33824 ft | 426 kts | 296° |
| 2026-04-25 15:03 | 52.24249 | 47.81414 | 33829 ft | 426 kts | 296° |
| 2026-04-25 15:03 | 52.26627 | 47.72629 | 33827 ft | 426 kts | 296° |
| 2026-04-25 15:04 | 52.29006 | 47.63802 | 33825 ft | 426 kts | 296° |
| 2026-04-25 15:04 | 52.31360 | 47.55035 | 33811 ft | 424 kts | 296° |
| 2026-04-25 15:05 | 52.33718 | 47.46220 | 33819 ft | 424 kts | 296° |
| 2026-04-25 15:06 | 52.37226 | 47.33060 | 33817 ft | 425 kts | 295° |
| 2026-04-25 15:06 | 52.39525 | 47.24396 | 33822 ft | 426 kts | 295° |
| 2026-04-25 15:07 | 52.41859 | 47.15567 | 33817 ft | 427 kts | 296° |
| 2026-04-25 15:07 | 52.44186 | 47.06727 | 33812 ft | 428 kts | 296° |
| 2026-04-25 15:08 | 52.46535 | 46.97768 | 33799 ft | 428 kts | 296° |
| 2026-04-25 15:08 | 52.48852 | 46.88895 | 33799 ft | 426 kts | 296° |
| 2026-04-25 15:09 | 52.51161 | 46.80014 | 33804 ft | 425 kts | 295° |
| 2026-04-25 15:09 | 52.54600 | 46.66689 | 33805 ft | 425 kts | 295° |
| 2026-04-25 15:10 | 52.56881 | 46.57806 | 33794 ft | 424 kts | 295° |
| 2026-04-25 15:11 | 52.60305 | 46.44406 | 33796 ft | 425 kts | 295° |
| 2026-04-25 15:11 | 52.62570 | 46.35500 | 33780 ft | 425 kts | 295° |
| 2026-04-25 15:12 | 52.65617 | 46.22085 | 33796 ft | 425 kts | 291° |
| 2026-04-25 15:12 | 52.66954 | 46.16074 | 33786 ft | 424 kts | 292° |
| 2026-04-25 15:13 | 52.70669 | 45.99352 | 33780 ft | 424 kts | 291° |
| 2026-04-25 15:14 | 52.72667 | 45.90323 | 33776 ft | 423 kts | 291° |
| 2026-04-25 15:14 | 52.74678 | 45.81202 | 33782 ft | 425 kts | 291° |
| 2026-04-25 15:15 | 52.76675 | 45.72104 | 33793 ft | 425 kts | 291° |
| 2026-04-25 15:15 | 52.78646 | 45.63089 | 33795 ft | 424 kts | 291° |
| 2026-04-25 15:16 | 52.80644 | 45.53915 | 33798 ft | 426 kts | 291° |
| 2026-04-25 15:16 | 52.83602 | 45.40229 | 33793 ft | 426 kts | 291° |
| 2026-04-25 15:17 | 52.86516 | 45.26646 | 33798 ft | 428 kts | 290° |
| 2026-04-25 15:18 | 52.88488 | 45.17402 | 33798 ft | 426 kts | 290° |
| 2026-04-25 15:18 | 52.91409 | 45.03631 | 33801 ft | 425 kts | 290° |
| 2026-04-25 15:19 | 52.92716 | 44.97439 | 33798 ft | 426 kts | 290° |
| 2026-04-25 15:19 | 52.95443 | 44.85262 | 33798 ft | 426 kts | 291° |
| 2026-04-25 15:20 | 52.97509 | 44.76056 | 33795 ft | 426 kts | 290° |
| 2026-04-25 15:20 | 52.99565 | 44.66842 | 33794 ft | 427 kts | 290° |
| 2026-04-25 15:21 | 53.01610 | 44.57622 | 33803 ft | 427 kts | 290° |
| 2026-04-25 15:21 | 53.03644 | 44.48412 | 33798 ft | 428 kts | 290° |
| 2026-04-25 15:22 | 53.05677 | 44.39156 | 33801 ft | 430 kts | 290° |
| 2026-04-25 15:22 | 53.07676 | 44.30008 | 33804 ft | 430 kts | 289° |
| 2026-04-25 15:23 | 53.09677 | 44.20800 | 33793 ft | 429 kts | 289° |
| 2026-04-25 15:23 | 53.11632 | 44.11769 | 33792 ft | 430 kts | 289° |
| 2026-04-25 15:24 | 53.13576 | 44.02748 | 33782 ft | 430 kts | 289° |
| 2026-04-25 15:24 | 53.15236 | 43.95013 | 33787 ft | 431 kts | 289° |
| 2026-04-25 15:25 | 53.17559 | 43.84139 | 33780 ft | 430 kts | 289° |
| 2026-04-25 15:25 | 53.19550 | 43.74768 | 33782 ft | 431 kts | 289° |
| 2026-04-25 15:26 | 53.21525 | 43.65434 | 33781 ft | 430 kts | 289° |
| 2026-04-25 15:26 | 53.23483 | 43.56138 | 33772 ft | 430 kts | 289° |
| 2026-04-25 15:27 | 53.25457 | 43.46724 | 33774 ft | 431 kts | 289° |
| 2026-04-25 15:28 | 53.28370 | 43.32745 | 33775 ft | 432 kts | 288° |
| 2026-04-25 15:28 | 53.30299 | 43.23436 | 33772 ft | 434 kts | 288° |
| 2026-04-25 15:29 | 53.32245 | 43.13999 | 33780 ft | 433 kts | 288° |
| 2026-04-25 15:29 | 53.34201 | 43.04469 | 33774 ft | 434 kts | 288° |
| 2026-04-25 15:30 | 53.36127 | 42.95042 | 33779 ft | 433 kts | 288° |
| 2026-04-25 15:30 | 53.38065 | 42.85506 | 33776 ft | 434 kts | 288° |
| 2026-04-25 15:31 | 53.39994 | 42.75972 | 33780 ft | 434 kts | 288° |
| 2026-04-25 15:31 | 53.41903 | 42.66493 | 33777 ft | 434 kts | 288° |
| 2026-04-25 15:32 | 53.43804 | 42.57002 | 33781 ft | 434 kts | 288° |
| 2026-04-25 15:32 | 53.45715 | 42.47418 | 33784 ft | 436 kts | 287° |
| 2026-04-25 15:33 | 53.48266 | 42.33022 | 33779 ft | 435 kts | 285° |
| 2026-04-25 15:33 | 53.49909 | 42.23609 | 33782 ft | 435 kts | 285° |
| 2026-04-25 15:34 | 53.51609 | 42.13851 | 33782 ft | 436 kts | 285° |
| 2026-04-25 15:34 | 53.53005 | 42.05811 | 33779 ft | 435 kts | 285° |
| 2026-04-25 15:35 | 53.55796 | 41.89640 | 33782 ft | 434 kts | 285° |
| 2026-04-25 15:36 | 53.58292 | 41.75056 | 33773 ft | 435 kts | 285° |
| 2026-04-25 15:36 | 53.59933 | 41.65405 | 33771 ft | 436 kts | 285° |
| 2026-04-25 15:37 | 53.61594 | 41.55579 | 33766 ft | 436 kts | 285° |
| 2026-04-25 15:37 | 53.63226 | 41.45872 | 33763 ft | 436 kts | 285° |
| 2026-04-25 15:38 | 53.64861 | 41.36092 | 33765 ft | 436 kts | 285° |
| 2026-04-25 15:38 | 53.66460 | 41.26474 | 33764 ft | 436 kts | 284° |
| 2026-04-25 15:39 | 53.68023 | 41.17028 | 33762 ft | 436 kts | 284° |
| 2026-04-25 15:39 | 53.69640 | 41.07192 | 33765 ft | 436 kts | 284° |
| 2026-04-25 15:40 | 53.70826 | 41.00750 | 33764 ft | 436 kts | 291° |
| 2026-04-25 15:40 | 53.74034 | 40.88340 | 33760 ft | 437 kts | 292° |
| 2026-04-25 15:41 | 53.76447 | 40.79037 | 33758 ft | 436 kts | 292° |
| 2026-04-25 15:41 | 53.78861 | 40.69665 | 33749 ft | 437 kts | 292° |
| 2026-04-25 15:42 | 53.81258 | 40.60311 | 33751 ft | 438 kts | 292° |
| 2026-04-25 15:42 | 53.83651 | 40.50929 | 33750 ft | 438 kts | 292° |
| 2026-04-25 15:43 | 53.86055 | 40.41454 | 33740 ft | 438 kts | 292° |
| 2026-04-25 15:43 | 53.88408 | 40.32153 | 33734 ft | 438 kts | 291° |
| 2026-04-25 15:44 | 53.90739 | 40.22938 | 33742 ft | 436 kts | 291° |
| 2026-04-25 15:44 | 53.93108 | 40.13530 | 33741 ft | 436 kts | 292° |
| 2026-04-25 15:45 | 53.95454 | 40.04172 | 33743 ft | 436 kts | 292° |
| 2026-04-25 15:45 | 53.97021 | 39.97901 | 33734 ft | 436 kts | 292° |
| 2026-04-25 15:46 | 54.00147 | 39.85335 | 33729 ft | 437 kts | 292° |
| 2026-04-25 15:46 | 54.02483 | 39.75898 | 33726 ft | 437 kts | 292° |
| 2026-04-25 15:47 | 54.04831 | 39.66369 | 33727 ft | 437 kts | 292° |
| 2026-04-25 15:47 | 54.07149 | 39.56924 | 33732 ft | 437 kts | 292° |
| 2026-04-25 15:48 | 54.09474 | 39.47407 | 33729 ft | 436 kts | 292° |
| 2026-04-25 15:48 | 54.11734 | 39.38119 | 33722 ft | 434 kts | 292° |
| 2026-04-25 15:49 | 54.13959 | 39.28936 | 33724 ft | 436 kts | 291° |
| 2026-04-25 15:49 | 54.16260 | 39.19393 | 33720 ft | 452 kts | 291° |
| 2026-04-25 15:50 | 54.18613 | 39.09591 | 33709 ft | 465 kts | 291° |
| 2026-04-25 15:50 | 54.20921 | 38.99942 | 33700 ft | 444 kts | 291° |
| 2026-04-25 15:51 | 54.21980 | 38.95502 | 33699 ft | 428 kts | 291° |
| 2026-04-25 15:51 | 54.22689 | 38.92523 | 33698 ft | 417 kts | 291° |
| 2026-04-25 15:51 | 54.25297 | 38.84506 | 33697 ft | 419 kts | 310° |